<?xml version="1.0" encoding="UTF-8" standalone="no" ?>
<gpx xmlns="http://www.topografix.com/GPX/1/1" xmlns:xsi="http://www.w3.org/2001/XMLSchema-instance" xsi:schemaLocation="http://www.topografix.com/GPX/1/1 http://www.topografix.com/GPX/1/1/gpx.xsd" version="1.1" creator="VisuGPX - https://www.visugpx.com">
  <metadata>
    <name>2024 05 22 Parcours Total 2024</name>
  </metadata>
  <trk>
    <name><![CDATA[CO2 totale]]></name>
    <extensions>
      <line xmlns="http://www.topografix.com/GPX/gpx_style/0/2">
        <color>ff0000</color>
        <width>4</width>
      </line>
    </extensions>
    <trkseg>
      <trkpt lat="48.07791" lon="3.24506">
        <ele>181.5</ele>
        <time>2024-04-21T07:39:44Z</time>
      </trkpt>
      <trkpt lat="48.07791" lon="3.24506">
        <ele>181.5</ele>
        <time>2024-04-21T07:39:45Z</time>
      </trkpt>
      <trkpt lat="48.0779" lon="3.24506">
        <ele>181.4</ele>
        <time>2024-04-21T07:39:58Z</time>
      </trkpt>
      <trkpt lat="48.07788" lon="3.24495">
        <ele>181.5</ele>
        <time>2024-04-21T07:40:04Z</time>
      </trkpt>
      <trkpt lat="48.07785" lon="3.24483">
        <ele>181.7</ele>
        <time>2024-04-21T07:40:07Z</time>
      </trkpt>
      <trkpt lat="48.07776" lon="3.24448">
        <ele>182</ele>
        <time>2024-04-21T07:40:16Z</time>
      </trkpt>
      <trkpt lat="48.07766" lon="3.24413">
        <ele>183.1</ele>
        <time>2024-04-21T07:40:24Z</time>
      </trkpt>
      <trkpt lat="48.07755" lon="3.24381">
        <ele>184.1</ele>
        <time>2024-04-21T07:40:32Z</time>
      </trkpt>
      <trkpt lat="48.0774" lon="3.24344">
        <ele>184.6</ele>
        <time>2024-04-21T07:40:41Z</time>
      </trkpt>
      <trkpt lat="48.07728" lon="3.24318">
        <ele>185</ele>
        <time>2024-04-21T07:40:47Z</time>
      </trkpt>
      <trkpt lat="48.0771" lon="3.24276">
        <ele>185.6</ele>
        <time>2024-04-21T07:40:56Z</time>
      </trkpt>
      <trkpt lat="48.07703" lon="3.24248">
        <ele>186</ele>
        <time>2024-04-21T07:41:02Z</time>
      </trkpt>
      <trkpt lat="48.07699" lon="3.2421">
        <ele>186.4</ele>
        <time>2024-04-21T07:41:09Z</time>
      </trkpt>
      <trkpt lat="48.07688" lon="3.24158">
        <ele>187</ele>
        <time>2024-04-21T07:41:19Z</time>
      </trkpt>
      <trkpt lat="48.07684" lon="3.24141">
        <ele>187</ele>
        <time>2024-04-21T07:41:22Z</time>
      </trkpt>
      <trkpt lat="48.07674" lon="3.24097">
        <ele>186.9</ele>
        <time>2024-04-21T07:41:30Z</time>
      </trkpt>
      <trkpt lat="48.07666" lon="3.24055">
        <ele>187</ele>
        <time>2024-04-21T07:41:37Z</time>
      </trkpt>
      <trkpt lat="48.07664" lon="3.24035">
        <ele>186.3</ele>
        <time>2024-04-21T07:41:41Z</time>
      </trkpt>
      <trkpt lat="48.07667" lon="3.24021">
        <ele>186</ele>
        <time>2024-04-21T07:41:45Z</time>
      </trkpt>
      <trkpt lat="48.07678" lon="3.24003">
        <ele>185.6</ele>
        <time>2024-04-21T07:41:52Z</time>
      </trkpt>
      <trkpt lat="48.07698" lon="3.23981">
        <ele>184.9</ele>
        <time>2024-04-21T07:41:58Z</time>
      </trkpt>
      <trkpt lat="48.07714" lon="3.23963">
        <ele>184</ele>
        <time>2024-04-21T07:42:04Z</time>
      </trkpt>
      <trkpt lat="48.07723" lon="3.23953">
        <ele>183.3</ele>
        <time>2024-04-21T07:42:07Z</time>
      </trkpt>
      <trkpt lat="48.07743" lon="3.23934">
        <ele>182</ele>
        <time>2024-04-21T07:42:12Z</time>
      </trkpt>
      <trkpt lat="48.07773" lon="3.23907">
        <ele>180.7</ele>
        <time>2024-04-21T07:42:20Z</time>
      </trkpt>
      <trkpt lat="48.07785" lon="3.23891">
        <ele>179.8</ele>
        <time>2024-04-21T07:42:24Z</time>
      </trkpt>
      <trkpt lat="48.07794" lon="3.23878">
        <ele>179.4</ele>
        <time>2024-04-21T07:42:29Z</time>
      </trkpt>
      <trkpt lat="48.07799" lon="3.23872">
        <ele>179.2</ele>
        <time>2024-04-21T07:42:34Z</time>
      </trkpt>
      <trkpt lat="48.07799" lon="3.2387">
        <ele>179.2</ele>
        <time>2024-04-21T07:42:46Z</time>
      </trkpt>
      <trkpt lat="48.07805" lon="3.2387">
        <ele>179</ele>
        <time>2024-04-21T07:43:07Z</time>
      </trkpt>
      <trkpt lat="48.07805" lon="3.23869">
        <ele>179</ele>
        <time>2024-04-21T07:43:23Z</time>
      </trkpt>
      <trkpt lat="48.07805" lon="3.2387">
        <ele>179</ele>
        <time>2024-04-21T07:43:40Z</time>
      </trkpt>
      <trkpt lat="48.07805" lon="3.2387">
        <ele>179</ele>
        <time>2024-04-21T07:43:56Z</time>
      </trkpt>
      <trkpt lat="48.07807" lon="3.2387">
        <ele>178.9</ele>
        <time>2024-04-21T07:44:09Z</time>
      </trkpt>
      <trkpt lat="48.07809" lon="3.23874">
        <ele>178.8</ele>
        <time>2024-04-21T07:44:24Z</time>
      </trkpt>
      <trkpt lat="48.07807" lon="3.23874">
        <ele>178.9</ele>
        <time>2024-04-21T07:44:38Z</time>
      </trkpt>
      <trkpt lat="48.07801" lon="3.23869">
        <ele>179.2</ele>
        <time>2024-04-21T07:44:53Z</time>
      </trkpt>
      <trkpt lat="48.07802" lon="3.23868">
        <ele>179.1</ele>
        <time>2024-04-21T07:45:12Z</time>
      </trkpt>
      <trkpt lat="48.07802" lon="3.23869">
        <ele>179.1</ele>
        <time>2024-04-21T07:45:27Z</time>
      </trkpt>
      <trkpt lat="48.078" lon="3.23869">
        <ele>179.2</ele>
        <time>2024-04-21T07:45:36Z</time>
      </trkpt>
      <trkpt lat="48.07798" lon="3.2387">
        <ele>179.3</ele>
        <time>2024-04-21T07:45:48Z</time>
      </trkpt>
      <trkpt lat="48.07797" lon="3.2387">
        <ele>179.3</ele>
        <time>2024-04-21T07:45:51Z</time>
      </trkpt>
      <trkpt lat="48.07792" lon="3.23878">
        <ele>179.5</ele>
        <time>2024-04-21T07:45:58Z</time>
      </trkpt>
      <trkpt lat="48.07783" lon="3.23893">
        <ele>180</ele>
        <time>2024-04-21T07:46:04Z</time>
      </trkpt>
      <trkpt lat="48.07771" lon="3.23906">
        <ele>180.7</ele>
        <time>2024-04-21T07:46:11Z</time>
      </trkpt>
      <trkpt lat="48.07755" lon="3.23921">
        <ele>181.1</ele>
        <time>2024-04-21T07:46:18Z</time>
      </trkpt>
      <trkpt lat="48.07739" lon="3.23936">
        <ele>182.2</ele>
        <time>2024-04-21T07:46:25Z</time>
      </trkpt>
      <trkpt lat="48.07726" lon="3.23948">
        <ele>183</ele>
        <time>2024-04-21T07:46:31Z</time>
      </trkpt>
      <trkpt lat="48.07718" lon="3.23957">
        <ele>183.6</ele>
        <time>2024-04-21T07:46:37Z</time>
      </trkpt>
      <trkpt lat="48.07697" lon="3.23977">
        <ele>184.9</ele>
        <time>2024-04-21T07:46:45Z</time>
      </trkpt>
      <trkpt lat="48.07682" lon="3.23991">
        <ele>185.4</ele>
        <time>2024-04-21T07:46:51Z</time>
      </trkpt>
      <trkpt lat="48.07672" lon="3.24003">
        <ele>185.8</ele>
        <time>2024-04-21T07:46:57Z</time>
      </trkpt>
      <trkpt lat="48.07673" lon="3.24009">
        <ele>185.8</ele>
        <time>2024-04-21T07:47:00Z</time>
      </trkpt>
      <trkpt lat="48.0768" lon="3.24012">
        <ele>185.5</ele>
        <time>2024-04-21T07:47:05Z</time>
      </trkpt>
      <trkpt lat="48.07701" lon="3.24009">
        <ele>184.8</ele>
        <time>2024-04-21T07:47:14Z</time>
      </trkpt>
      <trkpt lat="48.07726" lon="3.24003">
        <ele>184</ele>
        <time>2024-04-21T07:47:21Z</time>
      </trkpt>
      <trkpt lat="48.0773" lon="3.24003">
        <ele>183.8</ele>
        <time>2024-04-21T07:47:22Z</time>
      </trkpt>
      <trkpt lat="48.07758" lon="3.23995">
        <ele>182.7</ele>
        <time>2024-04-21T07:47:29Z</time>
      </trkpt>
      <trkpt lat="48.07785" lon="3.23987">
        <ele>181.7</ele>
        <time>2024-04-21T07:47:35Z</time>
      </trkpt>
      <trkpt lat="48.07788" lon="3.23987">
        <ele>181.6</ele>
        <time>2024-04-21T07:47:37Z</time>
      </trkpt>
      <trkpt lat="48.07796" lon="3.2399">
        <ele>181.3</ele>
        <time>2024-04-21T07:47:45Z</time>
      </trkpt>
      <trkpt lat="48.07798" lon="3.23991">
        <ele>181.3</ele>
        <time>2024-04-21T07:47:56Z</time>
      </trkpt>
      <trkpt lat="48.07799" lon="3.2399">
        <ele>181.2</ele>
        <time>2024-04-21T07:48:10Z</time>
      </trkpt>
      <trkpt lat="48.07796" lon="3.23996">
        <ele>181.3</ele>
        <time>2024-04-21T07:48:48Z</time>
      </trkpt>
      <trkpt lat="48.0779" lon="3.24013">
        <ele>182</ele>
        <time>2024-04-21T07:49:50Z</time>
      </trkpt>
      <trkpt lat="48.07792" lon="3.24009">
        <ele>181.8</ele>
        <time>2024-04-21T07:50:24Z</time>
      </trkpt>
      <trkpt lat="48.07801" lon="3.23985">
        <ele>181.2</ele>
        <time>2024-04-21T07:51:05Z</time>
      </trkpt>
      <trkpt lat="48.07805" lon="3.23986">
        <ele>181</ele>
        <time>2024-04-21T07:51:10Z</time>
      </trkpt>
      <trkpt lat="48.07817" lon="3.23981">
        <ele>180.6</ele>
        <time>2024-04-21T07:51:17Z</time>
      </trkpt>
      <trkpt lat="48.07839" lon="3.23974">
        <ele>179.8</ele>
        <time>2024-04-21T07:51:24Z</time>
      </trkpt>
      <trkpt lat="48.07861" lon="3.23967">
        <ele>178.8</ele>
        <time>2024-04-21T07:51:30Z</time>
      </trkpt>
      <trkpt lat="48.0787" lon="3.23964">
        <ele>178.4</ele>
        <time>2024-04-21T07:51:32Z</time>
      </trkpt>
      <trkpt lat="48.07883" lon="3.23961">
        <ele>177.8</ele>
        <time>2024-04-21T07:51:35Z</time>
      </trkpt>
      <trkpt lat="48.07916" lon="3.2395">
        <ele>177.2</ele>
        <time>2024-04-21T07:51:42Z</time>
      </trkpt>
      <trkpt lat="48.07948" lon="3.23943">
        <ele>177.1</ele>
        <time>2024-04-21T07:51:49Z</time>
      </trkpt>
      <trkpt lat="48.07983" lon="3.23936">
        <ele>177.7</ele>
        <time>2024-04-21T07:51:57Z</time>
      </trkpt>
      <trkpt lat="48.08015" lon="3.23926">
        <ele>177.7</ele>
        <time>2024-04-21T07:52:05Z</time>
      </trkpt>
      <trkpt lat="48.08019" lon="3.23926">
        <ele>177.8</ele>
        <time>2024-04-21T07:52:06Z</time>
      </trkpt>
      <trkpt lat="48.08051" lon="3.23917">
        <ele>178</ele>
        <time>2024-04-21T07:52:14Z</time>
      </trkpt>
      <trkpt lat="48.08074" lon="3.23909">
        <ele>178.7</ele>
        <time>2024-04-21T07:52:20Z</time>
      </trkpt>
      <trkpt lat="48.08086" lon="3.23908">
        <ele>179</ele>
        <time>2024-04-21T07:52:24Z</time>
      </trkpt>
      <trkpt lat="48.08089" lon="3.23918">
        <ele>179</ele>
        <time>2024-04-21T07:52:29Z</time>
      </trkpt>
      <trkpt lat="48.0808" lon="3.23935">
        <ele>179</ele>
        <time>2024-04-21T07:52:36Z</time>
      </trkpt>
      <trkpt lat="48.08067" lon="3.23954">
        <ele>179</ele>
        <time>2024-04-21T07:52:43Z</time>
      </trkpt>
      <trkpt lat="48.08055" lon="3.23972">
        <ele>179</ele>
        <time>2024-04-21T07:52:49Z</time>
      </trkpt>
      <trkpt lat="48.08046" lon="3.23985">
        <ele>179</ele>
        <time>2024-04-21T07:52:54Z</time>
      </trkpt>
      <trkpt lat="48.08034" lon="3.24005">
        <ele>179</ele>
        <time>2024-04-21T07:53:01Z</time>
      </trkpt>
      <trkpt lat="48.08022" lon="3.24023">
        <ele>179</ele>
        <time>2024-04-21T07:53:07Z</time>
      </trkpt>
      <trkpt lat="48.0801" lon="3.24039">
        <ele>179.4</ele>
        <time>2024-04-21T07:53:13Z</time>
      </trkpt>
      <trkpt lat="48.08008" lon="3.24042">
        <ele>179.5</ele>
        <time>2024-04-21T07:53:15Z</time>
      </trkpt>
      <trkpt lat="48.08008" lon="3.24056">
        <ele>180</ele>
        <time>2024-04-21T07:53:21Z</time>
      </trkpt>
      <trkpt lat="48.08009" lon="3.24074">
        <ele>180</ele>
        <time>2024-04-21T07:53:28Z</time>
      </trkpt>
      <trkpt lat="48.0801" lon="3.24084">
        <ele>180</ele>
        <time>2024-04-21T07:54:12Z</time>
      </trkpt>
      <trkpt lat="48.08012" lon="3.24081">
        <ele>180</ele>
        <time>2024-04-21T07:54:39Z</time>
      </trkpt>
      <trkpt lat="48.08009" lon="3.24077">
        <ele>180</ele>
        <time>2024-04-21T07:54:57Z</time>
      </trkpt>
      <trkpt lat="48.08008" lon="3.24075">
        <ele>180</ele>
        <time>2024-04-21T07:54:58Z</time>
      </trkpt>
      <trkpt lat="48.08007" lon="3.24072">
        <ele>180</ele>
        <time>2024-04-21T07:55:00Z</time>
      </trkpt>
      <trkpt lat="48.08004" lon="3.24055">
        <ele>180</ele>
        <time>2024-04-21T07:55:08Z</time>
      </trkpt>
      <trkpt lat="48.08015" lon="3.24032">
        <ele>179.2</ele>
        <time>2024-04-21T07:55:16Z</time>
      </trkpt>
      <trkpt lat="48.08026" lon="3.24018">
        <ele>179</ele>
        <time>2024-04-21T07:55:22Z</time>
      </trkpt>
      <trkpt lat="48.08036" lon="3.24001">
        <ele>179</ele>
        <time>2024-04-21T07:55:28Z</time>
      </trkpt>
      <trkpt lat="48.0805" lon="3.23978">
        <ele>179</ele>
        <time>2024-04-21T07:55:35Z</time>
      </trkpt>
      <trkpt lat="48.08061" lon="3.23961">
        <ele>179</ele>
        <time>2024-04-21T07:55:41Z</time>
      </trkpt>
      <trkpt lat="48.08065" lon="3.23957">
        <ele>179</ele>
        <time>2024-04-21T07:55:43Z</time>
      </trkpt>
      <trkpt lat="48.08074" lon="3.23945">
        <ele>179</ele>
        <time>2024-04-21T07:55:50Z</time>
      </trkpt>
      <trkpt lat="48.08088" lon="3.23926">
        <ele>179</ele>
        <time>2024-04-21T07:55:59Z</time>
      </trkpt>
      <trkpt lat="48.08095" lon="3.23917">
        <ele>179</ele>
        <time>2024-04-21T07:56:04Z</time>
      </trkpt>
      <trkpt lat="48.08105" lon="3.2392">
        <ele>179</ele>
        <time>2024-04-21T07:56:09Z</time>
      </trkpt>
      <trkpt lat="48.08119" lon="3.23933">
        <ele>178.8</ele>
        <time>2024-04-21T07:56:15Z</time>
      </trkpt>
      <trkpt lat="48.08122" lon="3.23937">
        <ele>178.7</ele>
        <time>2024-04-21T07:56:18Z</time>
      </trkpt>
      <trkpt lat="48.08127" lon="3.23936">
        <ele>178.6</ele>
        <time>2024-04-21T07:56:20Z</time>
      </trkpt>
      <trkpt lat="48.0814" lon="3.23943">
        <ele>178.1</ele>
      </trkpt>
      <trkpt lat="48.08157" lon="3.23923">
        <ele>178.3</ele>
        <time>2024-04-21T07:56:30Z</time>
      </trkpt>
      <trkpt lat="48.08173" lon="3.23899">
        <ele>178.1</ele>
        <time>2024-04-21T07:56:38Z</time>
      </trkpt>
      <trkpt lat="48.08185" lon="3.23878">
        <ele>178.8</ele>
        <time>2024-04-21T07:56:45Z</time>
      </trkpt>
      <trkpt lat="48.08198" lon="3.2386">
        <ele>179</ele>
        <time>2024-04-21T07:56:52Z</time>
      </trkpt>
      <trkpt lat="48.08215" lon="3.23836">
        <ele>179</ele>
        <time>2024-04-21T07:57:01Z</time>
      </trkpt>
      <trkpt lat="48.0823" lon="3.23815">
        <ele>179.8</ele>
        <time>2024-04-21T07:57:09Z</time>
      </trkpt>
      <trkpt lat="48.08244" lon="3.2379">
        <ele>180</ele>
        <time>2024-04-21T07:57:18Z</time>
      </trkpt>
      <trkpt lat="48.08241" lon="3.23777">
        <ele>180</ele>
        <time>2024-04-21T07:57:23Z</time>
      </trkpt>
      <trkpt lat="48.08233" lon="3.23757">
        <ele>180.3</ele>
        <time>2024-04-21T07:57:30Z</time>
      </trkpt>
      <trkpt lat="48.08239" lon="3.23736">
        <ele>180.6</ele>
        <time>2024-04-21T07:57:37Z</time>
      </trkpt>
      <trkpt lat="48.08252" lon="3.2372">
        <ele>180.9</ele>
        <time>2024-04-21T07:57:44Z</time>
      </trkpt>
      <trkpt lat="48.08269" lon="3.23695">
        <ele>180.7</ele>
        <time>2024-04-21T07:57:54Z</time>
      </trkpt>
      <trkpt lat="48.08285" lon="3.23673">
        <ele>180.4</ele>
        <time>2024-04-21T07:58:03Z</time>
      </trkpt>
      <trkpt lat="48.08293" lon="3.23663">
        <ele>180.4</ele>
        <time>2024-04-21T07:58:08Z</time>
      </trkpt>
      <trkpt lat="48.08305" lon="3.23647">
        <ele>180.3</ele>
        <time>2024-04-21T07:58:15Z</time>
      </trkpt>
      <trkpt lat="48.08302" lon="3.23635">
        <ele>179.7</ele>
        <time>2024-04-21T07:58:20Z</time>
      </trkpt>
      <trkpt lat="48.08289" lon="3.23623">
        <ele>179.2</ele>
        <time>2024-04-21T07:58:26Z</time>
      </trkpt>
      <trkpt lat="48.08277" lon="3.23617">
        <ele>179</ele>
        <time>2024-04-21T07:58:32Z</time>
      </trkpt>
      <trkpt lat="48.08268" lon="3.23612">
        <ele>178.7</ele>
        <time>2024-04-21T07:58:37Z</time>
      </trkpt>
      <trkpt lat="48.08259" lon="3.23604">
        <ele>178.2</ele>
        <time>2024-04-21T07:58:44Z</time>
      </trkpt>
      <trkpt lat="48.08248" lon="3.23593">
        <ele>178</ele>
        <time>2024-04-21T07:58:51Z</time>
      </trkpt>
      <trkpt lat="48.0824" lon="3.23585">
        <ele>177.7</ele>
        <time>2024-04-21T07:58:56Z</time>
      </trkpt>
      <trkpt lat="48.08227" lon="3.23568">
        <ele>177.6</ele>
        <time>2024-04-21T07:59:04Z</time>
      </trkpt>
      <trkpt lat="48.08223" lon="3.23561">
        <ele>177.8</ele>
        <time>2024-04-21T07:59:10Z</time>
      </trkpt>
      <trkpt lat="48.08223" lon="3.23557">
        <ele>177.9</ele>
        <time>2024-04-21T07:59:38Z</time>
      </trkpt>
      <trkpt lat="48.08227" lon="3.23557">
        <ele>178</ele>
        <time>2024-04-21T08:00:25Z</time>
      </trkpt>
      <trkpt lat="48.08229" lon="3.23563">
        <ele>177.8</ele>
        <time>2024-04-21T08:00:31Z</time>
      </trkpt>
      <trkpt lat="48.08234" lon="3.23572">
        <ele>177.7</ele>
        <time>2024-04-21T08:00:38Z</time>
      </trkpt>
      <trkpt lat="48.08236" lon="3.23576">
        <ele>177.6</ele>
        <time>2024-04-21T08:00:40Z</time>
      </trkpt>
      <trkpt lat="48.08248" lon="3.23587">
        <ele>177.9</ele>
        <time>2024-04-21T08:00:46Z</time>
      </trkpt>
      <trkpt lat="48.08266" lon="3.23606">
        <ele>178.5</ele>
        <time>2024-04-21T08:00:55Z</time>
      </trkpt>
      <trkpt lat="48.08276" lon="3.23614">
        <ele>178.9</ele>
        <time>2024-04-21T08:00:59Z</time>
      </trkpt>
      <trkpt lat="48.08295" lon="3.23626">
        <ele>179.3</ele>
        <time>2024-04-21T08:01:07Z</time>
      </trkpt>
      <trkpt lat="48.08304" lon="3.23638">
        <ele>179.9</ele>
        <time>2024-04-21T08:01:12Z</time>
      </trkpt>
      <trkpt lat="48.08315" lon="3.2364">
        <ele>180.4</ele>
        <time>2024-04-21T08:01:17Z</time>
      </trkpt>
      <trkpt lat="48.08328" lon="3.23631">
        <ele>180.3</ele>
        <time>2024-04-21T08:01:23Z</time>
      </trkpt>
      <trkpt lat="48.08355" lon="3.236">
        <ele>177.9</ele>
        <time>2024-04-21T08:01:34Z</time>
      </trkpt>
      <trkpt lat="48.08363" lon="3.23589">
        <ele>176.5</ele>
      </trkpt>
      <trkpt lat="48.08368" lon="3.23597">
        <ele>177.1</ele>
        <time>2024-04-21T08:01:39Z</time>
      </trkpt>
      <trkpt lat="48.08387" lon="3.23623">
        <ele>178</ele>
        <time>2024-04-21T08:01:48Z</time>
      </trkpt>
      <trkpt lat="48.08408" lon="3.23655">
        <ele>177.7</ele>
        <time>2024-04-21T08:01:57Z</time>
      </trkpt>
      <trkpt lat="48.08432" lon="3.23694">
        <ele>177.9</ele>
        <time>2024-04-21T08:02:07Z</time>
      </trkpt>
      <trkpt lat="48.08454" lon="3.23726">
        <ele>177.4</ele>
        <time>2024-04-21T08:02:15Z</time>
      </trkpt>
      <trkpt lat="48.08477" lon="3.23766">
        <ele>177.4</ele>
        <time>2024-04-21T08:02:24Z</time>
      </trkpt>
      <trkpt lat="48.08501" lon="3.23804">
        <ele>177.9</ele>
        <time>2024-04-21T08:02:33Z</time>
      </trkpt>
      <trkpt lat="48.08523" lon="3.23839">
        <ele>177.4</ele>
        <time>2024-04-21T08:02:41Z</time>
      </trkpt>
      <trkpt lat="48.08549" lon="3.23879">
        <ele>177</ele>
        <time>2024-04-21T08:02:51Z</time>
      </trkpt>
      <trkpt lat="48.0857" lon="3.23912">
        <ele>176.9</ele>
        <time>2024-04-21T08:03:00Z</time>
      </trkpt>
      <trkpt lat="48.08572" lon="3.23924">
        <ele>177</ele>
        <time>2024-04-21T08:03:03Z</time>
      </trkpt>
      <trkpt lat="48.08559" lon="3.23944">
        <ele>177.9</ele>
        <time>2024-04-21T08:03:10Z</time>
      </trkpt>
      <trkpt lat="48.0855" lon="3.23968">
        <ele>178</ele>
        <time>2024-04-21T08:03:17Z</time>
      </trkpt>
      <trkpt lat="48.08556" lon="3.2399">
        <ele>178</ele>
        <time>2024-04-21T08:03:22Z</time>
      </trkpt>
      <trkpt lat="48.08572" lon="3.24013">
        <ele>178</ele>
        <time>2024-04-21T08:03:29Z</time>
      </trkpt>
      <trkpt lat="48.08594" lon="3.24045">
        <ele>177.6</ele>
        <time>2024-04-21T08:03:38Z</time>
      </trkpt>
      <trkpt lat="48.08599" lon="3.24053">
        <ele>177.4</ele>
        <time>2024-04-21T08:03:40Z</time>
      </trkpt>
      <trkpt lat="48.08598" lon="3.24073">
        <ele>177.2</ele>
        <time>2024-04-21T08:03:44Z</time>
      </trkpt>
      <trkpt lat="48.08568" lon="3.24123">
        <ele>175.3</ele>
        <time>2024-04-21T08:03:54Z</time>
      </trkpt>
      <trkpt lat="48.0855" lon="3.24154">
        <ele>174.2</ele>
        <time>2024-04-21T08:04:00Z</time>
      </trkpt>
      <trkpt lat="48.08545" lon="3.24156">
        <ele>173.9</ele>
        <time>2024-04-21T08:04:04Z</time>
      </trkpt>
      <trkpt lat="48.08544" lon="3.24159">
        <ele>173.7</ele>
        <time>2024-04-21T08:04:19Z</time>
      </trkpt>
      <trkpt lat="48.08543" lon="3.2416">
        <ele>173.7</ele>
        <time>2024-04-21T08:04:32Z</time>
      </trkpt>
      <trkpt lat="48.08548" lon="3.24159">
        <ele>173.9</ele>
        <time>2024-04-21T08:04:37Z</time>
      </trkpt>
      <trkpt lat="48.08557" lon="3.24146">
        <ele>174.7</ele>
        <time>2024-04-21T08:04:44Z</time>
      </trkpt>
      <trkpt lat="48.08571" lon="3.2412">
        <ele>175.4</ele>
        <time>2024-04-21T08:04:52Z</time>
      </trkpt>
      <trkpt lat="48.08591" lon="3.24086">
        <ele>176.9</ele>
        <time>2024-04-21T08:05:02Z</time>
      </trkpt>
      <trkpt lat="48.08606" lon="3.2407">
        <ele>177.1</ele>
        <time>2024-04-21T08:05:09Z</time>
      </trkpt>
      <trkpt lat="48.08609" lon="3.24071">
        <ele>177</ele>
        <time>2024-04-21T08:05:10Z</time>
      </trkpt>
      <trkpt lat="48.08632" lon="3.24104">
        <ele>176.1</ele>
        <time>2024-04-21T08:05:19Z</time>
      </trkpt>
      <trkpt lat="48.08662" lon="3.2415">
        <ele>175.1</ele>
        <time>2024-04-21T08:05:29Z</time>
      </trkpt>
      <trkpt lat="48.08665" lon="3.24155">
        <ele>175</ele>
        <time>2024-04-21T08:05:30Z</time>
      </trkpt>
      <trkpt lat="48.08684" lon="3.24185">
        <ele>175.4</ele>
        <time>2024-04-21T08:05:36Z</time>
      </trkpt>
      <trkpt lat="48.08693" lon="3.242">
        <ele>175.9</ele>
        <time>2024-04-21T08:05:39Z</time>
      </trkpt>
      <trkpt lat="48.08717" lon="3.24242">
        <ele>175.3</ele>
        <time>2024-04-21T08:05:47Z</time>
      </trkpt>
      <trkpt lat="48.08746" lon="3.24294">
        <ele>174.9</ele>
        <time>2024-04-21T08:05:57Z</time>
      </trkpt>
      <trkpt lat="48.08767" lon="3.24328">
        <ele>175</ele>
        <time>2024-04-21T08:06:05Z</time>
      </trkpt>
      <trkpt lat="48.08779" lon="3.24322">
        <ele>175</ele>
        <time>2024-04-21T08:06:09Z</time>
      </trkpt>
      <trkpt lat="48.08803" lon="3.2429">
        <ele>174.1</ele>
        <time>2024-04-21T08:06:18Z</time>
      </trkpt>
      <trkpt lat="48.08833" lon="3.24252">
        <ele>173.1</ele>
        <time>2024-04-21T08:06:28Z</time>
      </trkpt>
      <trkpt lat="48.08859" lon="3.24208">
        <ele>171.1</ele>
        <time>2024-04-21T08:06:37Z</time>
      </trkpt>
      <trkpt lat="48.08866" lon="3.24188">
        <ele>170.4</ele>
        <time>2024-04-21T08:06:40Z</time>
      </trkpt>
      <trkpt lat="48.08864" lon="3.24155">
        <ele>169</ele>
        <time>2024-04-21T08:06:45Z</time>
      </trkpt>
      <trkpt lat="48.0886" lon="3.24149">
        <ele>168.8</ele>
        <time>2024-04-21T08:06:46Z</time>
      </trkpt>
      <trkpt lat="48.08831" lon="3.24102">
        <ele>167.5</ele>
        <time>2024-04-21T08:06:56Z</time>
      </trkpt>
      <trkpt lat="48.08825" lon="3.24084">
        <ele>166.9</ele>
        <time>2024-04-21T08:07:00Z</time>
      </trkpt>
      <trkpt lat="48.08832" lon="3.24058">
        <ele>164.3</ele>
        <time>2024-04-21T08:07:04Z</time>
      </trkpt>
      <trkpt lat="48.08854" lon="3.2402">
        <ele>160.2</ele>
        <time>2024-04-21T08:07:09Z</time>
      </trkpt>
      <trkpt lat="48.08869" lon="3.23993">
        <ele>156.6</ele>
        <time>2024-04-21T08:07:12Z</time>
      </trkpt>
      <trkpt lat="48.08878" lon="3.23975">
        <ele>154.4</ele>
        <time>2024-04-21T08:07:14Z</time>
      </trkpt>
      <trkpt lat="48.08882" lon="3.23969">
        <ele>153.4</ele>
        <time>2024-04-21T08:07:15Z</time>
      </trkpt>
      <trkpt lat="48.08896" lon="3.23941">
        <ele>148.9</ele>
        <time>2024-04-21T08:07:18Z</time>
      </trkpt>
      <trkpt lat="48.08903" lon="3.23925">
        <ele>146.4</ele>
        <time>2024-04-21T08:07:20Z</time>
      </trkpt>
      <trkpt lat="48.08913" lon="3.23908">
        <ele>143.5</ele>
        <time>2024-04-21T08:07:22Z</time>
      </trkpt>
      <trkpt lat="48.08925" lon="3.23886">
        <ele>139.4</ele>
        <time>2024-04-21T08:07:24Z</time>
      </trkpt>
      <trkpt lat="48.08942" lon="3.23858">
        <ele>133.9</ele>
        <time>2024-04-21T08:07:27Z</time>
      </trkpt>
      <trkpt lat="48.08951" lon="3.23842">
        <ele>131</ele>
        <time>2024-04-21T08:07:29Z</time>
      </trkpt>
      <trkpt lat="48.08962" lon="3.23823">
        <ele>127</ele>
        <time>2024-04-21T08:07:31Z</time>
      </trkpt>
      <trkpt lat="48.08973" lon="3.23802">
        <ele>122.5</ele>
        <time>2024-04-21T08:07:33Z</time>
      </trkpt>
      <trkpt lat="48.08978" lon="3.23792">
        <ele>120.8</ele>
        <time>2024-04-21T08:07:34Z</time>
      </trkpt>
      <trkpt lat="48.08982" lon="3.23776">
        <ele>118.4</ele>
        <time>2024-04-21T08:07:36Z</time>
      </trkpt>
      <trkpt lat="48.08982" lon="3.2377">
        <ele>117.8</ele>
        <time>2024-04-21T08:07:37Z</time>
      </trkpt>
      <trkpt lat="48.08981" lon="3.23763">
        <ele>117.1</ele>
        <time>2024-04-21T08:07:38Z</time>
      </trkpt>
      <trkpt lat="48.08978" lon="3.23756">
        <ele>116.8</ele>
        <time>2024-04-21T08:07:39Z</time>
      </trkpt>
      <trkpt lat="48.08974" lon="3.23749">
        <ele>116.6</ele>
        <time>2024-04-21T08:07:40Z</time>
      </trkpt>
      <trkpt lat="48.0897" lon="3.23743">
        <ele>116.6</ele>
        <time>2024-04-21T08:07:41Z</time>
      </trkpt>
      <trkpt lat="48.08966" lon="3.23736">
        <ele>116.4</ele>
        <time>2024-04-21T08:07:42Z</time>
      </trkpt>
      <trkpt lat="48.08962" lon="3.23729">
        <ele>116.2</ele>
        <time>2024-04-21T08:07:43Z</time>
      </trkpt>
      <trkpt lat="48.08941" lon="3.23697">
        <ele>115.6</ele>
        <time>2024-04-21T08:07:48Z</time>
      </trkpt>
      <trkpt lat="48.08932" lon="3.23685">
        <ele>115.3</ele>
        <time>2024-04-21T08:07:50Z</time>
      </trkpt>
      <trkpt lat="48.08909" lon="3.23652">
        <ele>114.1</ele>
        <time>2024-04-21T08:07:56Z</time>
      </trkpt>
      <trkpt lat="48.08906" lon="3.23647">
        <ele>113.8</ele>
        <time>2024-04-21T08:07:57Z</time>
      </trkpt>
      <trkpt lat="48.08902" lon="3.23643">
        <ele>113.6</ele>
        <time>2024-04-21T08:07:58Z</time>
      </trkpt>
      <trkpt lat="48.08899" lon="3.23638">
        <ele>113.2</ele>
        <time>2024-04-21T08:07:59Z</time>
      </trkpt>
      <trkpt lat="48.08896" lon="3.23631">
        <ele>112.6</ele>
        <time>2024-04-21T08:08:00Z</time>
      </trkpt>
      <trkpt lat="48.08893" lon="3.23625">
        <ele>112.2</ele>
        <time>2024-04-21T08:08:01Z</time>
      </trkpt>
      <trkpt lat="48.08879" lon="3.23599">
        <ele>110.4</ele>
        <time>2024-04-21T08:08:05Z</time>
      </trkpt>
      <trkpt lat="48.08875" lon="3.23592">
        <ele>109.9</ele>
        <time>2024-04-21T08:08:06Z</time>
      </trkpt>
      <trkpt lat="48.08871" lon="3.23585">
        <ele>109.5</ele>
        <time>2024-04-21T08:08:07Z</time>
      </trkpt>
      <trkpt lat="48.08867" lon="3.2358">
        <ele>109.2</ele>
        <time>2024-04-21T08:08:08Z</time>
      </trkpt>
      <trkpt lat="48.08863" lon="3.23574">
        <ele>108.9</ele>
        <time>2024-04-21T08:08:09Z</time>
      </trkpt>
      <trkpt lat="48.08845" lon="3.23546">
        <ele>107.6</ele>
        <time>2024-04-21T08:08:14Z</time>
      </trkpt>
      <trkpt lat="48.08842" lon="3.23539">
        <ele>107.1</ele>
        <time>2024-04-21T08:08:15Z</time>
      </trkpt>
      <trkpt lat="48.08838" lon="3.23526">
        <ele>106.2</ele>
        <time>2024-04-21T08:08:17Z</time>
      </trkpt>
      <trkpt lat="48.08835" lon="3.23522">
        <ele>106.4</ele>
        <time>2024-04-21T08:08:18Z</time>
      </trkpt>
      <trkpt lat="48.08831" lon="3.23518">
        <ele>106.5</ele>
        <time>2024-04-21T08:08:19Z</time>
      </trkpt>
      <trkpt lat="48.08827" lon="3.23516">
        <ele>106.8</ele>
        <time>2024-04-21T08:08:20Z</time>
      </trkpt>
      <trkpt lat="48.08822" lon="3.23515">
        <ele>107.3</ele>
        <time>2024-04-21T08:08:21Z</time>
      </trkpt>
      <trkpt lat="48.08817" lon="3.23513">
        <ele>107.7</ele>
        <time>2024-04-21T08:08:22Z</time>
      </trkpt>
      <trkpt lat="48.0879" lon="3.23501">
        <ele>109.8</ele>
        <time>2024-04-21T08:08:28Z</time>
      </trkpt>
      <trkpt lat="48.08786" lon="3.23498">
        <ele>109.9</ele>
        <time>2024-04-21T08:08:29Z</time>
      </trkpt>
      <trkpt lat="48.08782" lon="3.23493">
        <ele>109.8</ele>
        <time>2024-04-21T08:08:31Z</time>
      </trkpt>
      <trkpt lat="48.0878" lon="3.23489">
        <ele>109.6</ele>
        <time>2024-04-21T08:08:38Z</time>
      </trkpt>
      <trkpt lat="48.08781" lon="3.23488">
        <ele>109.4</ele>
        <time>2024-04-21T08:08:56Z</time>
      </trkpt>
      <trkpt lat="48.08783" lon="3.23487">
        <ele>109.1</ele>
        <time>2024-04-21T08:09:15Z</time>
      </trkpt>
      <trkpt lat="48.08779" lon="3.23489">
        <ele>109.6</ele>
        <time>2024-04-21T08:10:07Z</time>
      </trkpt>
      <trkpt lat="48.08771" lon="3.23474">
        <ele>109.2</ele>
        <time>2024-04-21T08:10:14Z</time>
      </trkpt>
      <trkpt lat="48.0876" lon="3.23455">
        <ele>108.9</ele>
        <time>2024-04-21T08:10:20Z</time>
      </trkpt>
      <trkpt lat="48.08743" lon="3.23432">
        <ele>109.3</ele>
        <time>2024-04-21T08:10:28Z</time>
      </trkpt>
      <trkpt lat="48.0873" lon="3.23418">
        <ele>110</ele>
        <time>2024-04-21T08:10:34Z</time>
      </trkpt>
      <trkpt lat="48.08712" lon="3.234">
        <ele>111.4</ele>
        <time>2024-04-21T08:10:42Z</time>
      </trkpt>
      <trkpt lat="48.08697" lon="3.23378">
        <ele>112.3</ele>
        <time>2024-04-21T08:10:50Z</time>
      </trkpt>
      <trkpt lat="48.08683" lon="3.23341">
        <ele>111.7</ele>
        <time>2024-04-21T08:10:59Z</time>
      </trkpt>
      <trkpt lat="48.08668" lon="3.23306">
        <ele>111.8</ele>
        <time>2024-04-21T08:11:08Z</time>
      </trkpt>
      <trkpt lat="48.08657" lon="3.23282">
        <ele>112.4</ele>
        <time>2024-04-21T08:11:15Z</time>
      </trkpt>
      <trkpt lat="48.08647" lon="3.23257">
        <ele>112.2</ele>
        <time>2024-04-21T08:11:22Z</time>
      </trkpt>
      <trkpt lat="48.08635" lon="3.23227">
        <ele>112.1</ele>
        <time>2024-04-21T08:11:29Z</time>
      </trkpt>
      <trkpt lat="48.08621" lon="3.23206">
        <ele>112.7</ele>
        <time>2024-04-21T08:11:34Z</time>
      </trkpt>
      <trkpt lat="48.08595" lon="3.23167">
        <ele>112.9</ele>
        <time>2024-04-21T08:11:43Z</time>
      </trkpt>
      <trkpt lat="48.08569" lon="3.23126">
        <ele>113.2</ele>
        <time>2024-04-21T08:11:52Z</time>
      </trkpt>
      <trkpt lat="48.0855" lon="3.23092">
        <ele>112.5</ele>
        <time>2024-04-21T08:12:00Z</time>
      </trkpt>
      <trkpt lat="48.08531" lon="3.23064">
        <ele>112.6</ele>
        <time>2024-04-21T08:12:07Z</time>
      </trkpt>
      <trkpt lat="48.08519" lon="3.23053">
        <ele>113.1</ele>
        <time>2024-04-21T08:12:10Z</time>
      </trkpt>
      <trkpt lat="48.08504" lon="3.23035">
        <ele>113.3</ele>
        <time>2024-04-21T08:12:14Z</time>
      </trkpt>
      <trkpt lat="48.08488" lon="3.23009">
        <ele>112.8</ele>
        <time>2024-04-21T08:12:20Z</time>
      </trkpt>
      <trkpt lat="48.0847" lon="3.2299">
        <ele>112.6</ele>
        <time>2024-04-21T08:12:27Z</time>
      </trkpt>
      <trkpt lat="48.08455" lon="3.22975">
        <ele>113.1</ele>
        <time>2024-04-21T08:12:33Z</time>
      </trkpt>
      <trkpt lat="48.08433" lon="3.22958">
        <ele>114</ele>
        <time>2024-04-21T08:12:40Z</time>
      </trkpt>
      <trkpt lat="48.08411" lon="3.2294">
        <ele>114.3</ele>
        <time>2024-04-21T08:12:47Z</time>
      </trkpt>
      <trkpt lat="48.08388" lon="3.22915">
        <ele>114</ele>
        <time>2024-04-21T08:12:54Z</time>
      </trkpt>
      <trkpt lat="48.08358" lon="3.22887">
        <ele>114.2</ele>
        <time>2024-04-21T08:13:01Z</time>
      </trkpt>
      <trkpt lat="48.08335" lon="3.22867">
        <ele>114.5</ele>
        <time>2024-04-21T08:13:08Z</time>
      </trkpt>
      <trkpt lat="48.08333" lon="3.22863">
        <ele>114.2</ele>
        <time>2024-04-21T08:13:14Z</time>
      </trkpt>
      <trkpt lat="48.0833" lon="3.22862">
        <ele>114.5</ele>
        <time>2024-04-21T08:13:26Z</time>
      </trkpt>
      <trkpt lat="48.08328" lon="3.22862">
        <ele>114.7</ele>
        <time>2024-04-21T08:13:45Z</time>
      </trkpt>
      <trkpt lat="48.0833" lon="3.22865">
        <ele>114.8</ele>
        <time>2024-04-21T08:13:56Z</time>
      </trkpt>
      <trkpt lat="48.08331" lon="3.22865">
        <ele>114.7</ele>
        <time>2024-04-21T08:13:57Z</time>
      </trkpt>
      <trkpt lat="48.08332" lon="3.22866">
        <ele>114.7</ele>
        <time>2024-04-21T08:13:58Z</time>
      </trkpt>
      <trkpt lat="48.08334" lon="3.22867">
        <ele>114.6</ele>
        <time>2024-04-21T08:13:59Z</time>
      </trkpt>
      <trkpt lat="48.08336" lon="3.22868">
        <ele>114.5</ele>
        <time>2024-04-21T08:14:00Z</time>
      </trkpt>
      <trkpt lat="48.08338" lon="3.2287">
        <ele>114.6</ele>
        <time>2024-04-21T08:14:01Z</time>
      </trkpt>
      <trkpt lat="48.08339" lon="3.22872">
        <ele>114.7</ele>
        <time>2024-04-21T08:14:02Z</time>
      </trkpt>
      <trkpt lat="48.08341" lon="3.22874">
        <ele>114.7</ele>
        <time>2024-04-21T08:14:03Z</time>
      </trkpt>
      <trkpt lat="48.08343" lon="3.22875">
        <ele>114.6</ele>
        <time>2024-04-21T08:14:04Z</time>
      </trkpt>
      <trkpt lat="48.08345" lon="3.22877">
        <ele>114.6</ele>
        <time>2024-04-21T08:14:05Z</time>
      </trkpt>
      <trkpt lat="48.08348" lon="3.22879">
        <ele>114.5</ele>
        <time>2024-04-21T08:14:06Z</time>
      </trkpt>
      <trkpt lat="48.08369" lon="3.22897">
        <ele>114.2</ele>
        <time>2024-04-21T08:14:13Z</time>
      </trkpt>
      <trkpt lat="48.08389" lon="3.22916">
        <ele>113.9</ele>
        <time>2024-04-21T08:14:20Z</time>
      </trkpt>
      <trkpt lat="48.0841" lon="3.22939">
        <ele>114.3</ele>
        <time>2024-04-21T08:14:27Z</time>
      </trkpt>
      <trkpt lat="48.0843" lon="3.22955">
        <ele>114</ele>
        <time>2024-04-21T08:14:33Z</time>
      </trkpt>
      <trkpt lat="48.08458" lon="3.22978">
        <ele>113.1</ele>
        <time>2024-04-21T08:14:41Z</time>
      </trkpt>
      <trkpt lat="48.08465" lon="3.22984">
        <ele>112.7</ele>
        <time>2024-04-21T08:14:44Z</time>
      </trkpt>
      <trkpt lat="48.08467" lon="3.22989">
        <ele>112.9</ele>
        <time>2024-04-21T08:14:48Z</time>
      </trkpt>
      <trkpt lat="48.08466" lon="3.22991">
        <ele>113.2</ele>
        <time>2024-04-21T08:14:53Z</time>
      </trkpt>
      <trkpt lat="48.08459" lon="3.22991">
        <ele>114.1</ele>
        <time>2024-04-21T08:15:02Z</time>
      </trkpt>
      <trkpt lat="48.08453" lon="3.22996">
        <ele>115.4</ele>
        <time>2024-04-21T08:15:09Z</time>
      </trkpt>
      <trkpt lat="48.08447" lon="3.23002">
        <ele>116.9</ele>
        <time>2024-04-21T08:15:16Z</time>
      </trkpt>
      <trkpt lat="48.08438" lon="3.23014">
        <ele>120.1</ele>
        <time>2024-04-21T08:15:27Z</time>
      </trkpt>
      <trkpt lat="48.08434" lon="3.23021">
        <ele>121.8</ele>
        <time>2024-04-21T08:15:35Z</time>
      </trkpt>
      <trkpt lat="48.0843" lon="3.2303">
        <ele>124</ele>
        <time>2024-04-21T08:15:44Z</time>
      </trkpt>
      <trkpt lat="48.08425" lon="3.23039">
        <ele>126.2</ele>
        <time>2024-04-21T08:15:51Z</time>
      </trkpt>
      <trkpt lat="48.08421" lon="3.23046">
        <ele>127.9</ele>
        <time>2024-04-21T08:15:59Z</time>
      </trkpt>
      <trkpt lat="48.08415" lon="3.23052">
        <ele>129.7</ele>
        <time>2024-04-21T08:16:07Z</time>
      </trkpt>
      <trkpt lat="48.0841" lon="3.23056">
        <ele>131</ele>
        <time>2024-04-21T08:16:14Z</time>
      </trkpt>
      <trkpt lat="48.0841" lon="3.23057">
        <ele>131.1</ele>
        <time>2024-04-21T08:16:21Z</time>
      </trkpt>
      <trkpt lat="48.08409" lon="3.23057">
        <ele>131.3</ele>
        <time>2024-04-21T08:16:23Z</time>
      </trkpt>
      <trkpt lat="48.08397" lon="3.2306">
        <ele>133.3</ele>
        <time>2024-04-21T08:16:33Z</time>
      </trkpt>
      <trkpt lat="48.08382" lon="3.23064">
        <ele>135.9</ele>
        <time>2024-04-21T08:16:44Z</time>
      </trkpt>
      <trkpt lat="48.08373" lon="3.23067">
        <ele>137.5</ele>
        <time>2024-04-21T08:16:50Z</time>
      </trkpt>
      <trkpt lat="48.08361" lon="3.23075">
        <ele>140.1</ele>
        <time>2024-04-21T08:16:59Z</time>
      </trkpt>
      <trkpt lat="48.08351" lon="3.23083">
        <ele>142.1</ele>
        <time>2024-04-21T08:17:07Z</time>
      </trkpt>
      <trkpt lat="48.08336" lon="3.2309">
        <ele>144.4</ele>
        <time>2024-04-21T08:17:17Z</time>
      </trkpt>
      <trkpt lat="48.08327" lon="3.23095">
        <ele>145.6</ele>
        <time>2024-04-21T08:17:24Z</time>
      </trkpt>
      <trkpt lat="48.08317" lon="3.23102">
        <ele>146.8</ele>
        <time>2024-04-21T08:17:32Z</time>
      </trkpt>
      <trkpt lat="48.08309" lon="3.23109">
        <ele>147.7</ele>
        <time>2024-04-21T08:17:39Z</time>
      </trkpt>
      <trkpt lat="48.08301" lon="3.23117">
        <ele>149.1</ele>
        <time>2024-04-21T08:17:47Z</time>
      </trkpt>
      <trkpt lat="48.08297" lon="3.2312">
        <ele>149.8</ele>
        <time>2024-04-21T08:17:50Z</time>
      </trkpt>
      <trkpt lat="48.08292" lon="3.23127">
        <ele>150.9</ele>
        <time>2024-04-21T08:17:57Z</time>
      </trkpt>
      <trkpt lat="48.08289" lon="3.23128">
        <ele>151.2</ele>
        <time>2024-04-21T08:18:03Z</time>
      </trkpt>
      <trkpt lat="48.08283" lon="3.23133">
        <ele>152.2</ele>
        <time>2024-04-21T08:18:11Z</time>
      </trkpt>
      <trkpt lat="48.08279" lon="3.23137">
        <ele>152.8</ele>
        <time>2024-04-21T08:18:19Z</time>
      </trkpt>
      <trkpt lat="48.08274" lon="3.23145">
        <ele>153.9</ele>
        <time>2024-04-21T08:18:27Z</time>
      </trkpt>
      <trkpt lat="48.08271" lon="3.23147">
        <ele>154.4</ele>
        <time>2024-04-21T08:18:35Z</time>
      </trkpt>
      <trkpt lat="48.08265" lon="3.23155">
        <ele>155.7</ele>
        <time>2024-04-21T08:18:42Z</time>
      </trkpt>
      <trkpt lat="48.08258" lon="3.23164">
        <ele>157.1</ele>
        <time>2024-04-21T08:18:51Z</time>
      </trkpt>
      <trkpt lat="48.08253" lon="3.23174">
        <ele>158.6</ele>
        <time>2024-04-21T08:19:00Z</time>
      </trkpt>
      <trkpt lat="48.08249" lon="3.23179">
        <ele>159.4</ele>
        <time>2024-04-21T08:19:07Z</time>
      </trkpt>
      <trkpt lat="48.08243" lon="3.23187">
        <ele>160.4</ele>
        <time>2024-04-21T08:19:15Z</time>
      </trkpt>
      <trkpt lat="48.08238" lon="3.23195">
        <ele>161.5</ele>
        <time>2024-04-21T08:19:22Z</time>
      </trkpt>
      <trkpt lat="48.08232" lon="3.23205">
        <ele>162.7</ele>
        <time>2024-04-21T08:19:32Z</time>
      </trkpt>
      <trkpt lat="48.08225" lon="3.23205">
        <ele>163</ele>
        <time>2024-04-21T08:19:40Z</time>
      </trkpt>
      <trkpt lat="48.08214" lon="3.23205">
        <ele>163.7</ele>
        <time>2024-04-21T08:19:51Z</time>
      </trkpt>
      <trkpt lat="48.08212" lon="3.23206">
        <ele>164</ele>
        <time>2024-04-21T08:19:58Z</time>
      </trkpt>
      <trkpt lat="48.08207" lon="3.23211">
        <ele>164.9</ele>
        <time>2024-04-21T08:20:28Z</time>
      </trkpt>
      <trkpt lat="48.08206" lon="3.23212">
        <ele>165.1</ele>
        <time>2024-04-21T08:20:47Z</time>
      </trkpt>
      <trkpt lat="48.08202" lon="3.2322">
        <ele>166.2</ele>
        <time>2024-04-21T08:22:01Z</time>
      </trkpt>
      <trkpt lat="48.08203" lon="3.23207">
        <ele>164.7</ele>
        <time>2024-04-21T08:22:14Z</time>
      </trkpt>
      <trkpt lat="48.08205" lon="3.23204">
        <ele>164.3</ele>
        <time>2024-04-21T08:22:28Z</time>
      </trkpt>
      <trkpt lat="48.08205" lon="3.23201">
        <ele>163.9</ele>
        <time>2024-04-21T08:22:41Z</time>
      </trkpt>
      <trkpt lat="48.08202" lon="3.23199">
        <ele>163.9</ele>
        <time>2024-04-21T08:22:47Z</time>
      </trkpt>
      <trkpt lat="48.08195" lon="3.23198">
        <ele>164.3</ele>
        <time>2024-04-21T08:22:52Z</time>
      </trkpt>
      <trkpt lat="48.08182" lon="3.23194">
        <ele>164.8</ele>
        <time>2024-04-21T08:23:01Z</time>
      </trkpt>
      <trkpt lat="48.0817" lon="3.23189">
        <ele>165.2</ele>
        <time>2024-04-21T08:23:08Z</time>
      </trkpt>
      <trkpt lat="48.08166" lon="3.23187">
        <ele>165.2</ele>
        <time>2024-04-21T08:23:10Z</time>
      </trkpt>
      <trkpt lat="48.08153" lon="3.23182">
        <ele>165.1</ele>
        <time>2024-04-21T08:23:18Z</time>
      </trkpt>
      <trkpt lat="48.08138" lon="3.23177">
        <ele>165.1</ele>
        <time>2024-04-21T08:23:26Z</time>
      </trkpt>
      <trkpt lat="48.08135" lon="3.23176">
        <ele>165.1</ele>
        <time>2024-04-21T08:23:28Z</time>
      </trkpt>
      <trkpt lat="48.08131" lon="3.23179">
        <ele>165.6</ele>
        <time>2024-04-21T08:23:31Z</time>
      </trkpt>
      <trkpt lat="48.08124" lon="3.2319">
        <ele>167.1</ele>
        <time>2024-04-21T08:23:38Z</time>
      </trkpt>
      <trkpt lat="48.08123" lon="3.23194">
        <ele>167.5</ele>
        <time>2024-04-21T08:23:40Z</time>
      </trkpt>
      <trkpt lat="48.08116" lon="3.23211">
        <ele>169.7</ele>
        <time>2024-04-21T08:23:47Z</time>
      </trkpt>
      <trkpt lat="48.08109" lon="3.23224">
        <ele>171.1</ele>
        <time>2024-04-21T08:23:55Z</time>
      </trkpt>
      <trkpt lat="48.08101" lon="3.23238">
        <ele>172.1</ele>
        <time>2024-04-21T08:24:04Z</time>
      </trkpt>
      <trkpt lat="48.08097" lon="3.2325">
        <ele>173</ele>
        <time>2024-04-21T08:24:12Z</time>
      </trkpt>
      <trkpt lat="48.08093" lon="3.2326">
        <ele>173.7</ele>
        <time>2024-04-21T08:24:18Z</time>
      </trkpt>
      <trkpt lat="48.08088" lon="3.23275">
        <ele>174.8</ele>
        <time>2024-04-21T08:24:26Z</time>
      </trkpt>
      <trkpt lat="48.08084" lon="3.23286">
        <ele>175.3</ele>
        <time>2024-04-21T08:24:33Z</time>
      </trkpt>
      <trkpt lat="48.08084" lon="3.23287">
        <ele>175.3</ele>
        <time>2024-04-21T08:24:41Z</time>
      </trkpt>
      <trkpt lat="48.0808" lon="3.23298">
        <ele>175.5</ele>
        <time>2024-04-21T08:25:34Z</time>
      </trkpt>
      <trkpt lat="48.08075" lon="3.23312">
        <ele>175.5</ele>
      </trkpt>
      <trkpt lat="48.0808" lon="3.23315">
        <ele>175.8</ele>
        <time>2024-04-21T08:25:42Z</time>
      </trkpt>
      <trkpt lat="48.08075" lon="3.23313">
        <ele>175.5</ele>
        <time>2024-04-21T08:25:50Z</time>
      </trkpt>
      <trkpt lat="48.08075" lon="3.23315">
        <ele>175.5</ele>
        <time>2024-04-21T08:26:38Z</time>
      </trkpt>
      <trkpt lat="48.08071" lon="3.23319">
        <ele>175.3</ele>
        <time>2024-04-21T08:27:06Z</time>
      </trkpt>
      <trkpt lat="48.08071" lon="3.23322">
        <ele>175.4</ele>
        <time>2024-04-21T08:27:20Z</time>
      </trkpt>
      <trkpt lat="48.08069" lon="3.2333">
        <ele>175.4</ele>
        <time>2024-04-21T08:27:26Z</time>
      </trkpt>
      <trkpt lat="48.08069" lon="3.23332">
        <ele>175.5</ele>
        <time>2024-04-21T08:27:27Z</time>
      </trkpt>
      <trkpt lat="48.08062" lon="3.23354">
        <ele>175.4</ele>
        <time>2024-04-21T08:27:36Z</time>
      </trkpt>
      <trkpt lat="48.08057" lon="3.2337">
        <ele>175.1</ele>
        <time>2024-04-21T08:27:42Z</time>
      </trkpt>
      <trkpt lat="48.08054" lon="3.2338">
        <ele>174.9</ele>
        <time>2024-04-21T08:27:45Z</time>
      </trkpt>
      <trkpt lat="48.08047" lon="3.23408">
        <ele>175.1</ele>
        <time>2024-04-21T08:27:53Z</time>
      </trkpt>
      <trkpt lat="48.0804" lon="3.23431">
        <ele>175.4</ele>
        <time>2024-04-21T08:28:00Z</time>
      </trkpt>
      <trkpt lat="48.08032" lon="3.23465">
        <ele>175.3</ele>
        <time>2024-04-21T08:28:08Z</time>
      </trkpt>
      <trkpt lat="48.0802" lon="3.23509">
        <ele>173.8</ele>
        <time>2024-04-21T08:28:16Z</time>
      </trkpt>
      <trkpt lat="48.08006" lon="3.23544">
        <ele>171.1</ele>
        <time>2024-04-21T08:28:21Z</time>
      </trkpt>
      <trkpt lat="48.07989" lon="3.23601">
        <ele>167.2</ele>
        <time>2024-04-21T08:28:30Z</time>
      </trkpt>
      <trkpt lat="48.07979" lon="3.2363">
        <ele>165.6</ele>
        <time>2024-04-21T08:28:36Z</time>
      </trkpt>
      <trkpt lat="48.07973" lon="3.23643">
        <ele>165.1</ele>
        <time>2024-04-21T08:28:39Z</time>
      </trkpt>
      <trkpt lat="48.07964" lon="3.23651">
        <ele>164.5</ele>
        <time>2024-04-21T08:28:43Z</time>
      </trkpt>
      <trkpt lat="48.07956" lon="3.23635">
        <ele>163.7</ele>
        <time>2024-04-21T08:28:49Z</time>
      </trkpt>
      <trkpt lat="48.07949" lon="3.23614">
        <ele>162.4</ele>
        <time>2024-04-21T08:28:53Z</time>
      </trkpt>
      <trkpt lat="48.0794" lon="3.23588">
        <ele>161</ele>
        <time>2024-04-21T08:28:57Z</time>
      </trkpt>
      <trkpt lat="48.07929" lon="3.23561">
        <ele>160</ele>
        <time>2024-04-21T08:29:01Z</time>
      </trkpt>
      <trkpt lat="48.07916" lon="3.23531">
        <ele>158.1</ele>
        <time>2024-04-21T08:29:05Z</time>
      </trkpt>
      <trkpt lat="48.07895" lon="3.23481">
        <ele>156.7</ele>
        <time>2024-04-21T08:29:11Z</time>
      </trkpt>
      <trkpt lat="48.07884" lon="3.23454">
        <ele>155.1</ele>
        <time>2024-04-21T08:29:14Z</time>
      </trkpt>
      <trkpt lat="48.07867" lon="3.23423">
        <ele>152.8</ele>
        <time>2024-04-21T08:29:17Z</time>
      </trkpt>
      <trkpt lat="48.07845" lon="3.23387">
        <ele>149.8</ele>
        <time>2024-04-21T08:29:22Z</time>
      </trkpt>
      <trkpt lat="48.07835" lon="3.23366">
        <ele>148.3</ele>
        <time>2024-04-21T08:29:25Z</time>
      </trkpt>
      <trkpt lat="48.07832" lon="3.23351">
        <ele>147.7</ele>
      </trkpt>
      <trkpt lat="48.07826" lon="3.23349">
        <ele>147.9</ele>
        <time>2024-04-21T08:29:30Z</time>
      </trkpt>
      <trkpt lat="48.07832" lon="3.23348">
        <ele>147.6</ele>
        <time>2024-04-21T08:29:37Z</time>
      </trkpt>
      <trkpt lat="48.07835" lon="3.23337">
        <ele>147.3</ele>
        <time>2024-04-21T08:30:27Z</time>
      </trkpt>
      <trkpt lat="48.07836" lon="3.23335">
        <ele>147.3</ele>
        <time>2024-04-21T08:31:14Z</time>
      </trkpt>
      <trkpt lat="48.07836" lon="3.23335">
        <ele>147.3</ele>
        <time>2024-04-21T08:31:15Z</time>
      </trkpt>
      <trkpt lat="48.07836" lon="3.23335">
        <ele>147.3</ele>
        <time>2024-04-21T08:31:23Z</time>
      </trkpt>
      <trkpt lat="48.07835" lon="3.23332">
        <ele>147.1</ele>
        <time>2024-04-21T08:31:28Z</time>
      </trkpt>
      <trkpt lat="48.07836" lon="3.23327">
        <ele>147</ele>
        <time>2024-04-21T08:31:34Z</time>
      </trkpt>
      <trkpt lat="48.07836" lon="3.23323">
        <ele>146.9</ele>
        <time>2024-04-21T08:31:36Z</time>
      </trkpt>
      <trkpt lat="48.07835" lon="3.23311">
        <ele>146.3</ele>
        <time>2024-04-21T08:31:40Z</time>
      </trkpt>
      <trkpt lat="48.0784" lon="3.23281">
        <ele>145.4</ele>
        <time>2024-04-21T08:31:47Z</time>
      </trkpt>
      <trkpt lat="48.0785" lon="3.23242">
        <ele>143.8</ele>
        <time>2024-04-21T08:31:54Z</time>
      </trkpt>
      <trkpt lat="48.07859" lon="3.23217">
        <ele>142.9</ele>
        <time>2024-04-21T08:31:58Z</time>
      </trkpt>
      <trkpt lat="48.07864" lon="3.23181">
        <ele>141.7</ele>
        <time>2024-04-21T08:32:04Z</time>
      </trkpt>
      <trkpt lat="48.0787" lon="3.23141">
        <ele>140.7</ele>
        <time>2024-04-21T08:32:11Z</time>
      </trkpt>
      <trkpt lat="48.07874" lon="3.23108">
        <ele>139.4</ele>
        <time>2024-04-21T08:32:17Z</time>
      </trkpt>
      <trkpt lat="48.07876" lon="3.23095">
        <ele>138.9</ele>
        <time>2024-04-21T08:32:23Z</time>
      </trkpt>
      <trkpt lat="48.07894" lon="3.2309">
        <ele>138.6</ele>
        <time>2024-04-21T08:32:29Z</time>
      </trkpt>
      <trkpt lat="48.07875" lon="3.23094">
        <ele>138.9</ele>
      </trkpt>
      <trkpt lat="48.07875" lon="3.23079">
        <ele>138.3</ele>
        <time>2024-04-21T08:33:40Z</time>
      </trkpt>
      <trkpt lat="48.07871" lon="3.23068">
        <ele>138.1</ele>
        <time>2024-04-21T08:34:43Z</time>
      </trkpt>
      <trkpt lat="48.07873" lon="3.2305">
        <ele>137.5</ele>
        <time>2024-04-21T08:34:49Z</time>
      </trkpt>
      <trkpt lat="48.07867" lon="3.23014">
        <ele>137.1</ele>
        <time>2024-04-21T08:34:57Z</time>
      </trkpt>
      <trkpt lat="48.07862" lon="3.22983">
        <ele>135.7</ele>
        <time>2024-04-21T08:35:03Z</time>
      </trkpt>
      <trkpt lat="48.07854" lon="3.22951">
        <ele>134.8</ele>
        <time>2024-04-21T08:35:09Z</time>
      </trkpt>
      <trkpt lat="48.07841" lon="3.22918">
        <ele>133.5</ele>
        <time>2024-04-21T08:35:15Z</time>
      </trkpt>
      <trkpt lat="48.07831" lon="3.22889">
        <ele>132</ele>
        <time>2024-04-21T08:35:21Z</time>
      </trkpt>
      <trkpt lat="48.07825" lon="3.2288">
        <ele>131.5</ele>
        <time>2024-04-21T08:35:24Z</time>
      </trkpt>
      <trkpt lat="48.07816" lon="3.2288">
        <ele>131.6</ele>
        <time>2024-04-21T08:35:28Z</time>
      </trkpt>
      <trkpt lat="48.0781" lon="3.22884">
        <ele>131.8</ele>
        <time>2024-04-21T08:35:31Z</time>
      </trkpt>
      <trkpt lat="48.07794" lon="3.22894">
        <ele>133.7</ele>
        <time>2024-04-21T08:35:38Z</time>
      </trkpt>
      <trkpt lat="48.0778" lon="3.22903">
        <ele>135.8</ele>
        <time>2024-04-21T08:35:45Z</time>
      </trkpt>
      <trkpt lat="48.07771" lon="3.22908">
        <ele>136.9</ele>
        <time>2024-04-21T08:35:52Z</time>
      </trkpt>
      <trkpt lat="48.0777" lon="3.22908">
        <ele>137</ele>
        <time>2024-04-21T08:36:01Z</time>
      </trkpt>
      <trkpt lat="48.07767" lon="3.22907">
        <ele>137.2</ele>
        <time>2024-04-21T08:36:09Z</time>
      </trkpt>
      <trkpt lat="48.07756" lon="3.22908">
        <ele>138.2</ele>
        <time>2024-04-21T08:36:43Z</time>
      </trkpt>
      <trkpt lat="48.07757" lon="3.22908">
        <ele>138.1</ele>
        <time>2024-04-21T08:36:58Z</time>
      </trkpt>
      <trkpt lat="48.07754" lon="3.22908">
        <ele>138.4</ele>
        <time>2024-04-21T08:37:10Z</time>
      </trkpt>
      <trkpt lat="48.07752" lon="3.22904">
        <ele>138.4</ele>
        <time>2024-04-21T08:37:26Z</time>
      </trkpt>
      <trkpt lat="48.07766" lon="3.22909">
        <ele>137.4</ele>
        <time>2024-04-21T08:37:31Z</time>
      </trkpt>
      <trkpt lat="48.07782" lon="3.22899">
        <ele>135.3</ele>
        <time>2024-04-21T08:37:37Z</time>
      </trkpt>
      <trkpt lat="48.07802" lon="3.22882">
        <ele>132.1</ele>
        <time>2024-04-21T08:37:42Z</time>
      </trkpt>
      <trkpt lat="48.07811" lon="3.22875">
        <ele>131.4</ele>
        <time>2024-04-21T08:37:44Z</time>
      </trkpt>
      <trkpt lat="48.07826" lon="3.22851">
        <ele>130.1</ele>
        <time>2024-04-21T08:37:48Z</time>
      </trkpt>
      <trkpt lat="48.07848" lon="3.22808">
        <ele>127</ele>
        <time>2024-04-21T08:37:54Z</time>
      </trkpt>
      <trkpt lat="48.07855" lon="3.22793">
        <ele>126.5</ele>
        <time>2024-04-21T08:37:56Z</time>
      </trkpt>
      <trkpt lat="48.0788" lon="3.2272">
        <ele>123</ele>
        <time>2024-04-21T08:38:04Z</time>
      </trkpt>
      <trkpt lat="48.07887" lon="3.22699">
        <ele>122.2</ele>
        <time>2024-04-21T08:38:06Z</time>
      </trkpt>
      <trkpt lat="48.07901" lon="3.22659">
        <ele>120.1</ele>
        <time>2024-04-21T08:38:10Z</time>
      </trkpt>
      <trkpt lat="48.07911" lon="3.22626">
        <ele>118.9</ele>
        <time>2024-04-21T08:38:14Z</time>
      </trkpt>
      <trkpt lat="48.07913" lon="3.22616">
        <ele>118.4</ele>
        <time>2024-04-21T08:38:16Z</time>
      </trkpt>
      <trkpt lat="48.07913" lon="3.2261">
        <ele>118.2</ele>
        <time>2024-04-21T08:38:21Z</time>
      </trkpt>
      <trkpt lat="48.07918" lon="3.22589">
        <ele>117.1</ele>
        <time>2024-04-21T08:38:28Z</time>
      </trkpt>
      <trkpt lat="48.07919" lon="3.22569">
        <ele>116.4</ele>
        <time>2024-04-21T08:38:32Z</time>
      </trkpt>
      <trkpt lat="48.07917" lon="3.22564">
        <ele>116.3</ele>
        <time>2024-04-21T08:38:33Z</time>
      </trkpt>
      <trkpt lat="48.07914" lon="3.22561">
        <ele>116.4</ele>
        <time>2024-04-21T08:38:34Z</time>
      </trkpt>
      <trkpt lat="48.07911" lon="3.22558">
        <ele>116.5</ele>
        <time>2024-04-21T08:38:35Z</time>
      </trkpt>
      <trkpt lat="48.07908" lon="3.22555">
        <ele>116.6</ele>
        <time>2024-04-21T08:38:36Z</time>
      </trkpt>
      <trkpt lat="48.07888" lon="3.22536">
        <ele>117.4</ele>
        <time>2024-04-21T08:38:42Z</time>
      </trkpt>
      <trkpt lat="48.07877" lon="3.22525">
        <ele>117.7</ele>
        <time>2024-04-21T08:38:45Z</time>
      </trkpt>
      <trkpt lat="48.07841" lon="3.22494">
        <ele>117.4</ele>
        <time>2024-04-21T08:38:54Z</time>
      </trkpt>
      <trkpt lat="48.07822" lon="3.22479">
        <ele>117.8</ele>
        <time>2024-04-21T08:39:00Z</time>
      </trkpt>
      <trkpt lat="48.07817" lon="3.22466">
        <ele>117.3</ele>
        <time>2024-04-21T08:39:05Z</time>
      </trkpt>
      <trkpt lat="48.07816" lon="3.22465">
        <ele>117.3</ele>
        <time>2024-04-21T08:39:06Z</time>
      </trkpt>
      <trkpt lat="48.07812" lon="3.22465">
        <ele>117.4</ele>
        <time>2024-04-21T08:39:08Z</time>
      </trkpt>
      <trkpt lat="48.07803" lon="3.22461">
        <ele>117.7</ele>
        <time>2024-04-21T08:39:13Z</time>
      </trkpt>
      <trkpt lat="48.07799" lon="3.22458">
        <ele>117.8</ele>
        <time>2024-04-21T08:39:15Z</time>
      </trkpt>
      <trkpt lat="48.07782" lon="3.22447">
        <ele>118</ele>
        <time>2024-04-21T08:39:22Z</time>
      </trkpt>
      <trkpt lat="48.07758" lon="3.22436">
        <ele>118.1</ele>
        <time>2024-04-21T08:39:30Z</time>
      </trkpt>
      <trkpt lat="48.0774" lon="3.22428">
        <ele>118.3</ele>
        <time>2024-04-21T08:39:36Z</time>
      </trkpt>
      <trkpt lat="48.07721" lon="3.2242">
        <ele>118.4</ele>
        <time>2024-04-21T08:39:42Z</time>
      </trkpt>
      <trkpt lat="48.07697" lon="3.22409">
        <ele>119</ele>
        <time>2024-04-21T08:39:48Z</time>
      </trkpt>
      <trkpt lat="48.07672" lon="3.22396">
        <ele>118.6</ele>
        <time>2024-04-21T08:39:54Z</time>
      </trkpt>
      <trkpt lat="48.07644" lon="3.22384">
        <ele>118.5</ele>
        <time>2024-04-21T08:40:01Z</time>
      </trkpt>
      <trkpt lat="48.07623" lon="3.22374">
        <ele>118.5</ele>
        <time>2024-04-21T08:40:07Z</time>
      </trkpt>
      <trkpt lat="48.07604" lon="3.22365">
        <ele>118.8</ele>
        <time>2024-04-21T08:40:13Z</time>
      </trkpt>
      <trkpt lat="48.07579" lon="3.22355">
        <ele>119.7</ele>
        <time>2024-04-21T08:40:20Z</time>
      </trkpt>
      <trkpt lat="48.07555" lon="3.22344">
        <ele>119.8</ele>
        <time>2024-04-21T08:40:26Z</time>
      </trkpt>
      <trkpt lat="48.07535" lon="3.22334">
        <ele>120.5</ele>
        <time>2024-04-21T08:40:32Z</time>
      </trkpt>
      <trkpt lat="48.07514" lon="3.22327">
        <ele>121.4</ele>
        <time>2024-04-21T08:40:39Z</time>
      </trkpt>
      <trkpt lat="48.07512" lon="3.22323">
        <ele>121.2</ele>
        <time>2024-04-21T08:40:44Z</time>
      </trkpt>
      <trkpt lat="48.07508" lon="3.22322">
        <ele>121.3</ele>
        <time>2024-04-21T08:41:03Z</time>
      </trkpt>
      <trkpt lat="48.07508" lon="3.22324">
        <ele>121.5</ele>
        <time>2024-04-21T08:41:15Z</time>
      </trkpt>
      <trkpt lat="48.07505" lon="3.22325">
        <ele>121.8</ele>
        <time>2024-04-21T08:41:27Z</time>
      </trkpt>
      <trkpt lat="48.07505" lon="3.22325">
        <ele>121.8</ele>
        <time>2024-04-21T08:41:39Z</time>
      </trkpt>
      <trkpt lat="48.07509" lon="3.22325">
        <ele>121.5</ele>
        <time>2024-04-21T08:41:57Z</time>
      </trkpt>
      <trkpt lat="48.07503" lon="3.22323">
        <ele>121.7</ele>
        <time>2024-04-21T08:42:06Z</time>
      </trkpt>
      <trkpt lat="48.07497" lon="3.22321">
        <ele>122.1</ele>
        <time>2024-04-21T08:42:11Z</time>
      </trkpt>
      <trkpt lat="48.07485" lon="3.22299">
        <ele>121.3</ele>
        <time>2024-04-21T08:42:18Z</time>
      </trkpt>
      <trkpt lat="48.07478" lon="3.22267">
        <ele>119.9</ele>
        <time>2024-04-21T08:42:25Z</time>
      </trkpt>
      <trkpt lat="48.07473" lon="3.22258">
        <ele>119.5</ele>
        <time>2024-04-21T08:42:29Z</time>
      </trkpt>
      <trkpt lat="48.07475" lon="3.22261">
        <ele>119.7</ele>
        <time>2024-04-21T08:42:40Z</time>
      </trkpt>
      <trkpt lat="48.07477" lon="3.22263">
        <ele>119.7</ele>
        <time>2024-04-21T08:42:54Z</time>
      </trkpt>
      <trkpt lat="48.07477" lon="3.22261">
        <ele>119.6</ele>
        <time>2024-04-21T08:43:12Z</time>
      </trkpt>
      <trkpt lat="48.07482" lon="3.22261">
        <ele>119.3</ele>
        <time>2024-04-21T08:43:33Z</time>
      </trkpt>
      <trkpt lat="48.07478" lon="3.22261">
        <ele>119.5</ele>
        <time>2024-04-21T08:43:46Z</time>
      </trkpt>
      <trkpt lat="48.07477" lon="3.22261">
        <ele>119.6</ele>
        <time>2024-04-21T08:43:57Z</time>
      </trkpt>
      <trkpt lat="48.07474" lon="3.2226">
        <ele>119.6</ele>
        <time>2024-04-21T08:44:09Z</time>
      </trkpt>
      <trkpt lat="48.07473" lon="3.22258">
        <ele>119.5</ele>
        <time>2024-04-21T08:44:24Z</time>
      </trkpt>
      <trkpt lat="48.07471" lon="3.22258">
        <ele>119.7</ele>
        <time>2024-04-21T08:44:31Z</time>
      </trkpt>
      <trkpt lat="48.07464" lon="3.22248">
        <ele>119.9</ele>
        <time>2024-04-21T08:44:37Z</time>
      </trkpt>
      <trkpt lat="48.07452" lon="3.22232">
        <ele>120.7</ele>
        <time>2024-04-21T08:44:42Z</time>
      </trkpt>
      <trkpt lat="48.07436" lon="3.22213">
        <ele>121.2</ele>
        <time>2024-04-21T08:44:48Z</time>
      </trkpt>
      <trkpt lat="48.07416" lon="3.22191">
        <ele>121</ele>
        <time>2024-04-21T08:44:54Z</time>
      </trkpt>
      <trkpt lat="48.074" lon="3.22172">
        <ele>122.1</ele>
        <time>2024-04-21T08:45:00Z</time>
      </trkpt>
      <trkpt lat="48.07381" lon="3.22151">
        <ele>122.8</ele>
        <time>2024-04-21T08:45:07Z</time>
      </trkpt>
      <trkpt lat="48.07367" lon="3.22134">
        <ele>123</ele>
        <time>2024-04-21T08:45:14Z</time>
      </trkpt>
      <trkpt lat="48.07354" lon="3.2212">
        <ele>123.5</ele>
        <time>2024-04-21T08:45:20Z</time>
      </trkpt>
      <trkpt lat="48.0735" lon="3.22111">
        <ele>123.2</ele>
        <time>2024-04-21T08:45:23Z</time>
      </trkpt>
      <trkpt lat="48.07341" lon="3.22111">
        <ele>124.2</ele>
        <time>2024-04-21T08:45:29Z</time>
      </trkpt>
      <trkpt lat="48.07338" lon="3.22111">
        <ele>124.5</ele>
        <time>2024-04-21T08:45:36Z</time>
      </trkpt>
      <trkpt lat="48.07336" lon="3.22119">
        <ele>125.5</ele>
        <time>2024-04-21T08:45:44Z</time>
      </trkpt>
      <trkpt lat="48.07334" lon="3.22129">
        <ele>126.8</ele>
        <time>2024-04-21T08:45:52Z</time>
      </trkpt>
      <trkpt lat="48.07331" lon="3.22139">
        <ele>128.4</ele>
        <time>2024-04-21T08:46:01Z</time>
      </trkpt>
      <trkpt lat="48.07328" lon="3.22147">
        <ele>130.1</ele>
        <time>2024-04-21T08:46:07Z</time>
      </trkpt>
      <trkpt lat="48.07323" lon="3.22161">
        <ele>132.7</ele>
        <time>2024-04-21T08:46:18Z</time>
      </trkpt>
      <trkpt lat="48.07321" lon="3.22166">
        <ele>133.7</ele>
        <time>2024-04-21T08:46:24Z</time>
      </trkpt>
      <trkpt lat="48.07317" lon="3.22177">
        <ele>135.5</ele>
        <time>2024-04-21T08:46:31Z</time>
      </trkpt>
      <trkpt lat="48.07317" lon="3.22179">
        <ele>135.7</ele>
        <time>2024-04-21T08:46:32Z</time>
      </trkpt>
      <trkpt lat="48.07315" lon="3.22188">
        <ele>136.9</ele>
        <time>2024-04-21T08:46:37Z</time>
      </trkpt>
      <trkpt lat="48.07314" lon="3.222">
        <ele>138.5</ele>
        <time>2024-04-21T08:46:43Z</time>
      </trkpt>
      <trkpt lat="48.07309" lon="3.22213">
        <ele>141.1</ele>
        <time>2024-04-21T08:46:50Z</time>
      </trkpt>
      <trkpt lat="48.07308" lon="3.2222">
        <ele>142.2</ele>
        <time>2024-04-21T08:46:53Z</time>
      </trkpt>
      <trkpt lat="48.07306" lon="3.22231">
        <ele>143.6</ele>
        <time>2024-04-21T08:46:59Z</time>
      </trkpt>
      <trkpt lat="48.07299" lon="3.22251">
        <ele>145.8</ele>
        <time>2024-04-21T08:47:10Z</time>
      </trkpt>
      <trkpt lat="48.07298" lon="3.22263">
        <ele>147.2</ele>
        <time>2024-04-21T08:47:17Z</time>
      </trkpt>
      <trkpt lat="48.07295" lon="3.22274">
        <ele>148.7</ele>
        <time>2024-04-21T08:47:23Z</time>
      </trkpt>
      <trkpt lat="48.07292" lon="3.22289">
        <ele>150.3</ele>
        <time>2024-04-21T08:47:32Z</time>
      </trkpt>
      <trkpt lat="48.07289" lon="3.22301">
        <ele>151.5</ele>
        <time>2024-04-21T08:47:39Z</time>
      </trkpt>
      <trkpt lat="48.07289" lon="3.22313">
        <ele>152.3</ele>
        <time>2024-04-21T08:47:46Z</time>
      </trkpt>
      <trkpt lat="48.07286" lon="3.2232">
        <ele>153.2</ele>
        <time>2024-04-21T08:47:50Z</time>
      </trkpt>
      <trkpt lat="48.07285" lon="3.22332">
        <ele>154.1</ele>
        <time>2024-04-21T08:47:57Z</time>
      </trkpt>
      <trkpt lat="48.07282" lon="3.22343">
        <ele>155.3</ele>
        <time>2024-04-21T08:48:04Z</time>
      </trkpt>
      <trkpt lat="48.0728" lon="3.22355">
        <ele>156.4</ele>
        <time>2024-04-21T08:48:11Z</time>
      </trkpt>
      <trkpt lat="48.07279" lon="3.22359">
        <ele>156.8</ele>
        <time>2024-04-21T08:48:13Z</time>
      </trkpt>
      <trkpt lat="48.07275" lon="3.22375">
        <ele>158.7</ele>
        <time>2024-04-21T08:48:22Z</time>
      </trkpt>
      <trkpt lat="48.07271" lon="3.22384">
        <ele>159.8</ele>
        <time>2024-04-21T08:48:29Z</time>
      </trkpt>
      <trkpt lat="48.07268" lon="3.22397">
        <ele>160.8</ele>
        <time>2024-04-21T08:48:36Z</time>
      </trkpt>
      <trkpt lat="48.07263" lon="3.22409">
        <ele>162</ele>
        <time>2024-04-21T08:48:44Z</time>
      </trkpt>
      <trkpt lat="48.07259" lon="3.2242">
        <ele>163.3</ele>
        <time>2024-04-21T08:48:51Z</time>
      </trkpt>
      <trkpt lat="48.07256" lon="3.22424">
        <ele>163.9</ele>
        <time>2024-04-21T08:48:58Z</time>
      </trkpt>
      <trkpt lat="48.07255" lon="3.22425">
        <ele>164.1</ele>
        <time>2024-04-21T08:49:10Z</time>
      </trkpt>
      <trkpt lat="48.07257" lon="3.22423">
        <ele>163.7</ele>
        <time>2024-04-21T08:49:23Z</time>
      </trkpt>
      <trkpt lat="48.07257" lon="3.22426">
        <ele>163.9</ele>
        <time>2024-04-21T08:49:38Z</time>
      </trkpt>
      <trkpt lat="48.07247" lon="3.22434">
        <ele>165.4</ele>
        <time>2024-04-21T08:49:55Z</time>
      </trkpt>
      <trkpt lat="48.07214" lon="3.22458">
        <ele>168</ele>
        <time>2024-04-21T08:50:08Z</time>
      </trkpt>
      <trkpt lat="48.07243" lon="3.22433">
        <ele>165.5</ele>
        <time>2024-04-21T08:50:28Z</time>
      </trkpt>
      <trkpt lat="48.07247" lon="3.22431">
        <ele>165.1</ele>
        <time>2024-04-21T08:50:44Z</time>
      </trkpt>
      <trkpt lat="48.0725" lon="3.22431">
        <ele>165</ele>
        <time>2024-04-21T08:50:54Z</time>
      </trkpt>
      <trkpt lat="48.07252" lon="3.2243">
        <ele>164.7</ele>
        <time>2024-04-21T08:51:08Z</time>
      </trkpt>
      <trkpt lat="48.07258" lon="3.22429">
        <ele>164</ele>
        <time>2024-04-21T08:51:22Z</time>
      </trkpt>
      <trkpt lat="48.07257" lon="3.22431">
        <ele>164.3</ele>
        <time>2024-04-21T08:51:32Z</time>
      </trkpt>
      <trkpt lat="48.07256" lon="3.22436">
        <ele>164.7</ele>
        <time>2024-04-21T08:51:36Z</time>
      </trkpt>
      <trkpt lat="48.07254" lon="3.2244">
        <ele>165.2</ele>
        <time>2024-04-21T08:51:38Z</time>
      </trkpt>
      <trkpt lat="48.07251" lon="3.22458">
        <ele>166.4</ele>
        <time>2024-04-21T08:51:46Z</time>
      </trkpt>
      <trkpt lat="48.0725" lon="3.22473">
        <ele>167.1</ele>
        <time>2024-04-21T08:51:52Z</time>
      </trkpt>
      <trkpt lat="48.07249" lon="3.22481">
        <ele>167.7</ele>
        <time>2024-04-21T08:51:56Z</time>
      </trkpt>
      <trkpt lat="48.07246" lon="3.22489">
        <ele>168.4</ele>
        <time>2024-04-21T08:52:00Z</time>
      </trkpt>
      <trkpt lat="48.07241" lon="3.22508">
        <ele>169.9</ele>
        <time>2024-04-21T08:52:09Z</time>
      </trkpt>
      <trkpt lat="48.07238" lon="3.22516">
        <ele>170.6</ele>
        <time>2024-04-21T08:52:12Z</time>
      </trkpt>
      <trkpt lat="48.07238" lon="3.22541">
        <ele>171.9</ele>
        <time>2024-04-21T08:52:21Z</time>
      </trkpt>
      <trkpt lat="48.07238" lon="3.22547">
        <ele>172.1</ele>
        <time>2024-04-21T08:52:24Z</time>
      </trkpt>
      <trkpt lat="48.07229" lon="3.22564">
        <ele>173.1</ele>
        <time>2024-04-21T08:52:33Z</time>
      </trkpt>
      <trkpt lat="48.07225" lon="3.22569">
        <ele>173.4</ele>
        <time>2024-04-21T08:52:39Z</time>
      </trkpt>
      <trkpt lat="48.07229" lon="3.22572">
        <ele>173.3</ele>
        <time>2024-04-21T08:52:47Z</time>
      </trkpt>
      <trkpt lat="48.0723" lon="3.22573">
        <ele>173.3</ele>
        <time>2024-04-21T08:52:48Z</time>
      </trkpt>
      <trkpt lat="48.07246" lon="3.22588">
        <ele>173.3</ele>
        <time>2024-04-21T08:52:58Z</time>
      </trkpt>
      <trkpt lat="48.07261" lon="3.22599">
        <ele>172.8</ele>
        <time>2024-04-21T08:53:06Z</time>
      </trkpt>
      <trkpt lat="48.07271" lon="3.22606">
        <ele>172.3</ele>
        <time>2024-04-21T08:53:12Z</time>
      </trkpt>
      <trkpt lat="48.07288" lon="3.22619">
        <ele>171.5</ele>
        <time>2024-04-21T08:53:19Z</time>
      </trkpt>
      <trkpt lat="48.07307" lon="3.22632">
        <ele>170.6</ele>
        <time>2024-04-21T08:53:25Z</time>
      </trkpt>
      <trkpt lat="48.07329" lon="3.22647">
        <ele>169.6</ele>
        <time>2024-04-21T08:53:31Z</time>
      </trkpt>
      <trkpt lat="48.07347" lon="3.22665">
        <ele>169</ele>
        <time>2024-04-21T08:53:37Z</time>
      </trkpt>
      <trkpt lat="48.07365" lon="3.2268">
        <ele>168.2</ele>
        <time>2024-04-21T08:53:42Z</time>
      </trkpt>
      <trkpt lat="48.07391" lon="3.227">
        <ele>166.8</ele>
        <time>2024-04-21T08:53:48Z</time>
      </trkpt>
      <trkpt lat="48.07411" lon="3.22717">
        <ele>164.6</ele>
        <time>2024-04-21T08:53:54Z</time>
      </trkpt>
      <trkpt lat="48.07426" lon="3.22732">
        <ele>162.3</ele>
        <time>2024-04-21T08:53:58Z</time>
      </trkpt>
      <trkpt lat="48.07437" lon="3.22743">
        <ele>160.3</ele>
        <time>2024-04-21T08:54:00Z</time>
      </trkpt>
      <trkpt lat="48.07442" lon="3.22749">
        <ele>159.4</ele>
        <time>2024-04-21T08:54:01Z</time>
      </trkpt>
      <trkpt lat="48.07457" lon="3.22762">
        <ele>157.8</ele>
        <time>2024-04-21T08:54:05Z</time>
      </trkpt>
      <trkpt lat="48.0746" lon="3.22764">
        <ele>157.6</ele>
        <time>2024-04-21T08:54:06Z</time>
      </trkpt>
      <trkpt lat="48.0748" lon="3.2278">
        <ele>157.2</ele>
        <time>2024-04-21T08:54:13Z</time>
      </trkpt>
      <trkpt lat="48.07496" lon="3.22795">
        <ele>158.2</ele>
        <time>2024-04-21T08:54:20Z</time>
      </trkpt>
      <trkpt lat="48.07506" lon="3.228">
        <ele>158.6</ele>
        <time>2024-04-21T08:54:25Z</time>
      </trkpt>
      <trkpt lat="48.07524" lon="3.22811">
        <ele>159.4</ele>
        <time>2024-04-21T08:54:32Z</time>
      </trkpt>
      <trkpt lat="48.0754" lon="3.22823">
        <ele>160.3</ele>
        <time>2024-04-21T08:54:40Z</time>
      </trkpt>
      <trkpt lat="48.07555" lon="3.22835">
        <ele>161.1</ele>
        <time>2024-04-21T08:54:48Z</time>
      </trkpt>
      <trkpt lat="48.07563" lon="3.22843">
        <ele>161.5</ele>
        <time>2024-04-21T08:54:55Z</time>
      </trkpt>
      <trkpt lat="48.07569" lon="3.2285">
        <ele>161.6</ele>
        <time>2024-04-21T08:55:48Z</time>
      </trkpt>
      <trkpt lat="48.07572" lon="3.22856">
        <ele>161.7</ele>
        <time>2024-04-21T08:56:03Z</time>
      </trkpt>
      <trkpt lat="48.07571" lon="3.22867">
        <ele>162.1</ele>
      </trkpt>
      <trkpt lat="48.07564" lon="3.22889">
        <ele>163.4</ele>
        <time>2024-04-21T08:56:18Z</time>
      </trkpt>
      <trkpt lat="48.07573" lon="3.22867">
        <ele>162</ele>
        <time>2024-04-21T08:56:35Z</time>
      </trkpt>
      <trkpt lat="48.07573" lon="3.22857">
        <ele>161.6</ele>
        <time>2024-04-21T08:56:53Z</time>
      </trkpt>
      <trkpt lat="48.07573" lon="3.22854">
        <ele>161.5</ele>
        <time>2024-04-21T08:56:55Z</time>
      </trkpt>
      <trkpt lat="48.07569" lon="3.22845">
        <ele>161.4</ele>
        <time>2024-04-21T08:57:02Z</time>
      </trkpt>
      <trkpt lat="48.07569" lon="3.22844">
        <ele>161.4</ele>
        <time>2024-04-21T08:57:06Z</time>
      </trkpt>
      <trkpt lat="48.07567" lon="3.22842">
        <ele>161.4</ele>
        <time>2024-04-21T08:57:08Z</time>
      </trkpt>
      <trkpt lat="48.07553" lon="3.22831">
        <ele>160.8</ele>
        <time>2024-04-21T08:57:15Z</time>
      </trkpt>
      <trkpt lat="48.07549" lon="3.22828">
        <ele>160.6</ele>
        <time>2024-04-21T08:57:17Z</time>
      </trkpt>
      <trkpt lat="48.0753" lon="3.22814">
        <ele>159.6</ele>
        <time>2024-04-21T08:57:25Z</time>
      </trkpt>
      <trkpt lat="48.07522" lon="3.22809">
        <ele>159.2</ele>
        <time>2024-04-21T08:57:27Z</time>
      </trkpt>
      <trkpt lat="48.07509" lon="3.22809">
        <ele>159.2</ele>
        <time>2024-04-21T08:57:31Z</time>
      </trkpt>
      <trkpt lat="48.07507" lon="3.22817">
        <ele>159.8</ele>
        <time>2024-04-21T08:57:34Z</time>
      </trkpt>
      <trkpt lat="48.0751" lon="3.22827">
        <ele>160.5</ele>
        <time>2024-04-21T08:57:37Z</time>
      </trkpt>
      <trkpt lat="48.07509" lon="3.22849">
        <ele>162.5</ele>
        <time>2024-04-21T08:57:45Z</time>
      </trkpt>
      <trkpt lat="48.07497" lon="3.22872">
        <ele>163.9</ele>
        <time>2024-04-21T08:57:52Z</time>
      </trkpt>
      <trkpt lat="48.07489" lon="3.22896">
        <ele>164.5</ele>
        <time>2024-04-21T08:57:59Z</time>
      </trkpt>
      <trkpt lat="48.07485" lon="3.22918">
        <ele>166</ele>
        <time>2024-04-21T08:58:05Z</time>
      </trkpt>
      <trkpt lat="48.07481" lon="3.22941">
        <ele>166.9</ele>
        <time>2024-04-21T08:58:12Z</time>
      </trkpt>
      <trkpt lat="48.07474" lon="3.22966">
        <ele>167.8</ele>
        <time>2024-04-21T08:58:20Z</time>
      </trkpt>
      <trkpt lat="48.07473" lon="3.22972">
        <ele>168</ele>
        <time>2024-04-21T08:58:22Z</time>
      </trkpt>
      <trkpt lat="48.07469" lon="3.22983">
        <ele>168.4</ele>
        <time>2024-04-21T08:58:25Z</time>
      </trkpt>
      <trkpt lat="48.07462" lon="3.23016">
        <ele>169.4</ele>
        <time>2024-04-21T08:58:33Z</time>
      </trkpt>
      <trkpt lat="48.07458" lon="3.2304">
        <ele>170</ele>
        <time>2024-04-21T08:58:39Z</time>
      </trkpt>
      <trkpt lat="48.07452" lon="3.23062">
        <ele>170.8</ele>
        <time>2024-04-21T08:58:45Z</time>
      </trkpt>
      <trkpt lat="48.0745" lon="3.23089">
        <ele>171.3</ele>
        <time>2024-04-21T08:58:52Z</time>
      </trkpt>
      <trkpt lat="48.0744" lon="3.23114">
        <ele>173.3</ele>
        <time>2024-04-21T08:58:59Z</time>
      </trkpt>
      <trkpt lat="48.07433" lon="3.2314">
        <ele>174.5</ele>
        <time>2024-04-21T08:59:06Z</time>
      </trkpt>
      <trkpt lat="48.07424" lon="3.23172">
        <ele>175.9</ele>
        <time>2024-04-21T08:59:15Z</time>
      </trkpt>
      <trkpt lat="48.07417" lon="3.23201">
        <ele>177.2</ele>
        <time>2024-04-21T08:59:24Z</time>
      </trkpt>
      <trkpt lat="48.0741" lon="3.23224">
        <ele>178.3</ele>
        <time>2024-04-21T08:59:32Z</time>
      </trkpt>
      <trkpt lat="48.07405" lon="3.23244">
        <ele>178.7</ele>
        <time>2024-04-21T08:59:40Z</time>
      </trkpt>
      <trkpt lat="48.07405" lon="3.23246">
        <ele>178.8</ele>
        <time>2024-04-21T08:59:41Z</time>
      </trkpt>
      <trkpt lat="48.07402" lon="3.23257">
        <ele>179.3</ele>
        <time>2024-04-21T08:59:48Z</time>
      </trkpt>
      <trkpt lat="48.07402" lon="3.23258">
        <ele>179.3</ele>
        <time>2024-04-21T08:59:49Z</time>
      </trkpt>
      <trkpt lat="48.07402" lon="3.23261">
        <ele>179.5</ele>
        <time>2024-04-21T08:59:51Z</time>
      </trkpt>
      <trkpt lat="48.07403" lon="3.23262">
        <ele>179.4</ele>
        <time>2024-04-21T08:59:52Z</time>
      </trkpt>
      <trkpt lat="48.07403" lon="3.23264">
        <ele>179.5</ele>
        <time>2024-04-21T08:59:53Z</time>
      </trkpt>
      <trkpt lat="48.07403" lon="3.23265">
        <ele>179.5</ele>
        <time>2024-04-21T08:59:54Z</time>
      </trkpt>
      <trkpt lat="48.07402" lon="3.23268">
        <ele>179.7</ele>
        <time>2024-04-21T08:59:56Z</time>
      </trkpt>
      <trkpt lat="48.07401" lon="3.23268">
        <ele>179.8</ele>
        <time>2024-04-21T08:59:57Z</time>
      </trkpt>
      <trkpt lat="48.07399" lon="3.2327">
        <ele>180</ele>
        <time>2024-04-21T08:59:58Z</time>
      </trkpt>
      <trkpt lat="48.07396" lon="3.23275">
        <ele>180.4</ele>
        <time>2024-04-21T09:00:03Z</time>
      </trkpt>
      <trkpt lat="48.07394" lon="3.23287">
        <ele>181</ele>
        <time>2024-04-21T09:00:09Z</time>
      </trkpt>
      <trkpt lat="48.0739" lon="3.23298">
        <ele>181.6</ele>
        <time>2024-04-21T09:00:14Z</time>
      </trkpt>
      <trkpt lat="48.07388" lon="3.23303">
        <ele>182</ele>
        <time>2024-04-21T09:00:16Z</time>
      </trkpt>
      <trkpt lat="48.07381" lon="3.23322">
        <ele>183.2</ele>
        <time>2024-04-21T09:00:23Z</time>
      </trkpt>
      <trkpt lat="48.07376" lon="3.23346">
        <ele>184.6</ele>
        <time>2024-04-21T09:00:31Z</time>
      </trkpt>
      <trkpt lat="48.07375" lon="3.23354">
        <ele>185.1</ele>
        <time>2024-04-21T09:00:34Z</time>
      </trkpt>
      <trkpt lat="48.07372" lon="3.23366">
        <ele>185.8</ele>
        <time>2024-04-21T09:00:38Z</time>
      </trkpt>
      <trkpt lat="48.07363" lon="3.23389">
        <ele>187.8</ele>
        <time>2024-04-21T09:00:45Z</time>
      </trkpt>
      <trkpt lat="48.0736" lon="3.23402">
        <ele>188.1</ele>
        <time>2024-04-21T09:00:49Z</time>
      </trkpt>
      <trkpt lat="48.07361" lon="3.23413">
        <ele>188</ele>
        <time>2024-04-21T09:00:52Z</time>
      </trkpt>
      <trkpt lat="48.07355" lon="3.23438">
        <ele>189</ele>
        <time>2024-04-21T09:01:00Z</time>
      </trkpt>
      <trkpt lat="48.07351" lon="3.23466">
        <ele>189.6</ele>
        <time>2024-04-21T09:01:07Z</time>
      </trkpt>
      <trkpt lat="48.07348" lon="3.23497">
        <ele>190.4</ele>
        <time>2024-04-21T09:01:15Z</time>
      </trkpt>
      <trkpt lat="48.07344" lon="3.23523">
        <ele>190.6</ele>
        <time>2024-04-21T09:01:23Z</time>
      </trkpt>
      <trkpt lat="48.07331" lon="3.23552">
        <ele>191.1</ele>
        <time>2024-04-21T09:01:31Z</time>
      </trkpt>
      <trkpt lat="48.07329" lon="3.23575">
        <ele>191.2</ele>
        <time>2024-04-21T09:01:37Z</time>
      </trkpt>
      <trkpt lat="48.07321" lon="3.23601">
        <ele>191.8</ele>
        <time>2024-04-21T09:01:44Z</time>
      </trkpt>
      <trkpt lat="48.07314" lon="3.23616">
        <ele>191.9</ele>
        <time>2024-04-21T09:01:48Z</time>
      </trkpt>
      <trkpt lat="48.07298" lon="3.23639">
        <ele>191</ele>
        <time>2024-04-21T09:01:54Z</time>
      </trkpt>
      <trkpt lat="48.07283" lon="3.23666">
        <ele>190.2</ele>
        <time>2024-04-21T09:02:00Z</time>
      </trkpt>
      <trkpt lat="48.07275" lon="3.23688">
        <ele>189</ele>
        <time>2024-04-21T09:02:05Z</time>
      </trkpt>
      <trkpt lat="48.07272" lon="3.23695">
        <ele>188.6</ele>
        <time>2024-04-21T09:02:06Z</time>
      </trkpt>
      <trkpt lat="48.07247" lon="3.23746">
        <ele>185</ele>
        <time>2024-04-21T09:02:14Z</time>
      </trkpt>
      <trkpt lat="48.0724" lon="3.23758">
        <ele>184.5</ele>
        <time>2024-04-21T09:02:16Z</time>
      </trkpt>
      <trkpt lat="48.07224" lon="3.23781">
        <ele>183.1</ele>
        <time>2024-04-21T09:02:20Z</time>
      </trkpt>
      <trkpt lat="48.0721" lon="3.23797">
        <ele>182.3</ele>
        <time>2024-04-21T09:02:23Z</time>
      </trkpt>
      <trkpt lat="48.07189" lon="3.2382">
        <ele>180.3</ele>
        <time>2024-04-21T09:02:27Z</time>
      </trkpt>
      <trkpt lat="48.07155" lon="3.23869">
        <ele>177.3</ele>
        <time>2024-04-21T09:02:33Z</time>
      </trkpt>
      <trkpt lat="48.07151" lon="3.23874">
        <ele>177</ele>
        <time>2024-04-21T09:02:34Z</time>
      </trkpt>
      <trkpt lat="48.07136" lon="3.23899">
        <ele>175.3</ele>
        <time>2024-04-21T09:02:37Z</time>
      </trkpt>
      <trkpt lat="48.07121" lon="3.23925">
        <ele>173</ele>
        <time>2024-04-21T09:02:42Z</time>
      </trkpt>
      <trkpt lat="48.07116" lon="3.23934">
        <ele>172.4</ele>
        <time>2024-04-21T09:02:44Z</time>
      </trkpt>
      <trkpt lat="48.0711" lon="3.23933">
        <ele>171.9</ele>
        <time>2024-04-21T09:02:49Z</time>
      </trkpt>
      <trkpt lat="48.07108" lon="3.23928">
        <ele>171.7</ele>
        <time>2024-04-21T09:02:53Z</time>
      </trkpt>
      <trkpt lat="48.07101" lon="3.23909">
        <ele>171.2</ele>
        <time>2024-04-21T09:03:01Z</time>
      </trkpt>
      <trkpt lat="48.07097" lon="3.2389">
        <ele>171.4</ele>
        <time>2024-04-21T09:03:08Z</time>
      </trkpt>
      <trkpt lat="48.07097" lon="3.23888">
        <ele>171.5</ele>
        <time>2024-04-21T09:03:17Z</time>
      </trkpt>
      <trkpt lat="48.07097" lon="3.23888">
        <ele>171.5</ele>
        <time>2024-04-21T09:04:11Z</time>
      </trkpt>
      <trkpt lat="48.07097" lon="3.23887">
        <ele>171.5</ele>
        <time>2024-04-21T09:04:22Z</time>
      </trkpt>
      <trkpt lat="48.07096" lon="3.239">
        <ele>171</ele>
        <time>2024-04-21T09:04:44Z</time>
      </trkpt>
      <trkpt lat="48.07106" lon="3.23929">
        <ele>171.5</ele>
        <time>2024-04-21T09:04:52Z</time>
      </trkpt>
      <trkpt lat="48.07118" lon="3.23962">
        <ele>171.9</ele>
        <time>2024-04-21T09:05:00Z</time>
      </trkpt>
      <trkpt lat="48.07131" lon="3.23985">
        <ele>171.8</ele>
        <time>2024-04-21T09:05:07Z</time>
      </trkpt>
      <trkpt lat="48.07139" lon="3.24003">
        <ele>170.9</ele>
        <time>2024-04-21T09:05:11Z</time>
      </trkpt>
      <trkpt lat="48.07139" lon="3.24008">
        <ele>170.7</ele>
        <time>2024-04-21T09:05:12Z</time>
      </trkpt>
      <trkpt lat="48.0714" lon="3.24012">
        <ele>170.6</ele>
        <time>2024-04-21T09:05:13Z</time>
      </trkpt>
      <trkpt lat="48.07141" lon="3.24017">
        <ele>170.5</ele>
        <time>2024-04-21T09:05:14Z</time>
      </trkpt>
      <trkpt lat="48.07142" lon="3.24021">
        <ele>170.4</ele>
        <time>2024-04-21T09:05:15Z</time>
      </trkpt>
      <trkpt lat="48.07142" lon="3.24025">
        <ele>170.2</ele>
        <time>2024-04-21T09:05:16Z</time>
      </trkpt>
      <trkpt lat="48.07153" lon="3.24045">
        <ele>169.9</ele>
        <time>2024-04-21T09:05:21Z</time>
      </trkpt>
      <trkpt lat="48.07173" lon="3.24081">
        <ele>167.2</ele>
        <time>2024-04-21T09:05:28Z</time>
      </trkpt>
      <trkpt lat="48.07179" lon="3.24093">
        <ele>166.5</ele>
        <time>2024-04-21T09:05:30Z</time>
      </trkpt>
      <trkpt lat="48.07182" lon="3.24099">
        <ele>166.1</ele>
        <time>2024-04-21T09:05:31Z</time>
      </trkpt>
      <trkpt lat="48.07186" lon="3.24112">
        <ele>165.3</ele>
        <time>2024-04-21T09:05:33Z</time>
      </trkpt>
      <trkpt lat="48.07189" lon="3.24119">
        <ele>165</ele>
        <time>2024-04-21T09:05:34Z</time>
      </trkpt>
      <trkpt lat="48.07198" lon="3.24139">
        <ele>164</ele>
        <time>2024-04-21T09:05:37Z</time>
      </trkpt>
      <trkpt lat="48.072" lon="3.24146">
        <ele>163.7</ele>
        <time>2024-04-21T09:05:38Z</time>
      </trkpt>
      <trkpt lat="48.07203" lon="3.24154">
        <ele>163.5</ele>
        <time>2024-04-21T09:05:39Z</time>
      </trkpt>
      <trkpt lat="48.07208" lon="3.24168">
        <ele>162.9</ele>
        <time>2024-04-21T09:05:41Z</time>
      </trkpt>
      <trkpt lat="48.07213" lon="3.24182">
        <ele>162.1</ele>
        <time>2024-04-21T09:05:43Z</time>
      </trkpt>
      <trkpt lat="48.07219" lon="3.24205">
        <ele>160.8</ele>
        <time>2024-04-21T09:05:46Z</time>
      </trkpt>
      <trkpt lat="48.07231" lon="3.24261">
        <ele>158.9</ele>
        <time>2024-04-21T09:05:53Z</time>
      </trkpt>
      <trkpt lat="48.07238" lon="3.24308">
        <ele>157.4</ele>
        <time>2024-04-21T09:05:58Z</time>
      </trkpt>
      <trkpt lat="48.0724" lon="3.24328">
        <ele>156.3</ele>
        <time>2024-04-21T09:06:00Z</time>
      </trkpt>
      <trkpt lat="48.07238" lon="3.2439">
        <ele>154.5</ele>
        <time>2024-04-21T09:06:06Z</time>
      </trkpt>
      <trkpt lat="48.07237" lon="3.244">
        <ele>154.1</ele>
        <time>2024-04-21T09:06:07Z</time>
      </trkpt>
      <trkpt lat="48.07235" lon="3.24411">
        <ele>153.7</ele>
        <time>2024-04-21T09:06:08Z</time>
      </trkpt>
      <trkpt lat="48.07234" lon="3.24431">
        <ele>152.9</ele>
        <time>2024-04-21T09:06:10Z</time>
      </trkpt>
      <trkpt lat="48.07231" lon="3.24451">
        <ele>151.9</ele>
        <time>2024-04-21T09:06:12Z</time>
      </trkpt>
      <trkpt lat="48.07217" lon="3.24519">
        <ele>149.4</ele>
        <time>2024-04-21T09:06:19Z</time>
      </trkpt>
      <trkpt lat="48.07216" lon="3.24546">
        <ele>148.2</ele>
        <time>2024-04-21T09:06:22Z</time>
      </trkpt>
      <trkpt lat="48.07222" lon="3.24587">
        <ele>146</ele>
        <time>2024-04-21T09:06:28Z</time>
      </trkpt>
      <trkpt lat="48.07228" lon="3.24621">
        <ele>146.2</ele>
        <time>2024-04-21T09:06:34Z</time>
      </trkpt>
      <trkpt lat="48.07236" lon="3.24643">
        <ele>146</ele>
        <time>2024-04-21T09:06:38Z</time>
      </trkpt>
      <trkpt lat="48.07247" lon="3.24666">
        <ele>146</ele>
        <time>2024-04-21T09:06:42Z</time>
      </trkpt>
      <trkpt lat="48.07253" lon="3.24678">
        <ele>146.2</ele>
        <time>2024-04-21T09:06:44Z</time>
      </trkpt>
      <trkpt lat="48.07277" lon="3.2472">
        <ele>145.2</ele>
        <time>2024-04-21T09:06:52Z</time>
      </trkpt>
      <trkpt lat="48.07298" lon="3.24747">
        <ele>145.4</ele>
        <time>2024-04-21T09:06:58Z</time>
      </trkpt>
      <trkpt lat="48.07319" lon="3.24762">
        <ele>145.1</ele>
        <time>2024-04-21T09:07:03Z</time>
      </trkpt>
      <trkpt lat="48.07339" lon="3.24778">
        <ele>144</ele>
        <time>2024-04-21T09:07:08Z</time>
      </trkpt>
      <trkpt lat="48.07351" lon="3.2479">
        <ele>143.3</ele>
        <time>2024-04-21T09:07:13Z</time>
      </trkpt>
      <trkpt lat="48.07361" lon="3.24797">
        <ele>142.6</ele>
        <time>2024-04-21T09:07:20Z</time>
      </trkpt>
      <trkpt lat="48.07368" lon="3.24804">
        <ele>142.4</ele>
        <time>2024-04-21T09:07:25Z</time>
      </trkpt>
      <trkpt lat="48.07369" lon="3.24807">
        <ele>142.3</ele>
        <time>2024-04-21T09:07:32Z</time>
      </trkpt>
      <trkpt lat="48.0737" lon="3.24807">
        <ele>142.3</ele>
        <time>2024-04-21T09:07:45Z</time>
      </trkpt>
      <trkpt lat="48.07336" lon="3.24772">
        <ele>144.5</ele>
        <time>2024-04-21T09:12:16Z</time>
      </trkpt>
      <trkpt lat="48.07322" lon="3.24764">
        <ele>145</ele>
        <time>2024-04-21T09:12:22Z</time>
      </trkpt>
      <trkpt lat="48.07305" lon="3.24753">
        <ele>145</ele>
        <time>2024-04-21T09:12:29Z</time>
      </trkpt>
      <trkpt lat="48.0729" lon="3.24735">
        <ele>145.7</ele>
        <time>2024-04-21T09:12:36Z</time>
      </trkpt>
      <trkpt lat="48.07278" lon="3.24719">
        <ele>145.2</ele>
        <time>2024-04-21T09:12:42Z</time>
      </trkpt>
      <trkpt lat="48.07267" lon="3.24704">
        <ele>146.3</ele>
        <time>2024-04-21T09:12:48Z</time>
      </trkpt>
      <trkpt lat="48.07259" lon="3.2469">
        <ele>146.4</ele>
        <time>2024-04-21T09:12:54Z</time>
      </trkpt>
      <trkpt lat="48.07246" lon="3.24671">
        <ele>146</ele>
        <time>2024-04-21T09:13:01Z</time>
      </trkpt>
      <trkpt lat="48.07234" lon="3.24654">
        <ele>145.9</ele>
        <time>2024-04-21T09:13:08Z</time>
      </trkpt>
      <trkpt lat="48.07225" lon="3.24632">
        <ele>145.5</ele>
        <time>2024-04-21T09:13:16Z</time>
      </trkpt>
      <trkpt lat="48.0722" lon="3.24623">
        <ele>145.6</ele>
        <time>2024-04-21T09:13:21Z</time>
      </trkpt>
      <trkpt lat="48.07216" lon="3.24625">
        <ele>145.5</ele>
        <time>2024-04-21T09:13:25Z</time>
      </trkpt>
      <trkpt lat="48.07216" lon="3.24628">
        <ele>145.4</ele>
        <time>2024-04-21T09:13:26Z</time>
      </trkpt>
      <trkpt lat="48.07213" lon="3.24633">
        <ele>145.4</ele>
        <time>2024-04-21T09:13:29Z</time>
      </trkpt>
      <trkpt lat="48.07207" lon="3.24645">
        <ele>145.8</ele>
        <time>2024-04-21T09:13:36Z</time>
      </trkpt>
      <trkpt lat="48.07203" lon="3.24653">
        <ele>146.2</ele>
        <time>2024-04-21T09:13:42Z</time>
      </trkpt>
      <trkpt lat="48.072" lon="3.24657">
        <ele>146.5</ele>
        <time>2024-04-21T09:13:45Z</time>
      </trkpt>
      <trkpt lat="48.07194" lon="3.24671">
        <ele>147.5</ele>
        <time>2024-04-21T09:13:53Z</time>
      </trkpt>
      <trkpt lat="48.07192" lon="3.24685">
        <ele>149.3</ele>
        <time>2024-04-21T09:14:00Z</time>
      </trkpt>
      <trkpt lat="48.07192" lon="3.24689">
        <ele>149.7</ele>
        <time>2024-04-21T09:14:02Z</time>
      </trkpt>
      <trkpt lat="48.07187" lon="3.24704">
        <ele>151.8</ele>
        <time>2024-04-21T09:14:11Z</time>
      </trkpt>
      <trkpt lat="48.07185" lon="3.24711">
        <ele>152.8</ele>
        <time>2024-04-21T09:14:17Z</time>
      </trkpt>
      <trkpt lat="48.0718" lon="3.24724">
        <ele>154.7</ele>
        <time>2024-04-21T09:14:25Z</time>
      </trkpt>
      <trkpt lat="48.07172" lon="3.24736">
        <ele>156.4</ele>
        <time>2024-04-21T09:14:32Z</time>
      </trkpt>
      <trkpt lat="48.07172" lon="3.24738">
        <ele>156.6</ele>
        <time>2024-04-21T09:14:33Z</time>
      </trkpt>
      <trkpt lat="48.07167" lon="3.24754">
        <ele>158.3</ele>
        <time>2024-04-21T09:14:40Z</time>
      </trkpt>
      <trkpt lat="48.07165" lon="3.24761">
        <ele>159</ele>
        <time>2024-04-21T09:14:43Z</time>
      </trkpt>
      <trkpt lat="48.07164" lon="3.24765">
        <ele>159.4</ele>
        <time>2024-04-21T09:14:45Z</time>
      </trkpt>
      <trkpt lat="48.07159" lon="3.24778">
        <ele>160.8</ele>
        <time>2024-04-21T09:14:53Z</time>
      </trkpt>
      <trkpt lat="48.07153" lon="3.24791">
        <ele>162.2</ele>
        <time>2024-04-21T09:15:00Z</time>
      </trkpt>
      <trkpt lat="48.07146" lon="3.24804">
        <ele>163.4</ele>
        <time>2024-04-21T09:15:07Z</time>
      </trkpt>
      <trkpt lat="48.07145" lon="3.24809">
        <ele>163.8</ele>
        <time>2024-04-21T09:15:09Z</time>
      </trkpt>
      <trkpt lat="48.07137" lon="3.2482">
        <ele>165.2</ele>
        <time>2024-04-21T09:15:17Z</time>
      </trkpt>
      <trkpt lat="48.07136" lon="3.24821">
        <ele>165.4</ele>
        <time>2024-04-21T09:15:18Z</time>
      </trkpt>
      <trkpt lat="48.07134" lon="3.24824">
        <ele>165.7</ele>
        <time>2024-04-21T09:15:20Z</time>
      </trkpt>
      <trkpt lat="48.07129" lon="3.24833">
        <ele>166.7</ele>
        <time>2024-04-21T09:15:26Z</time>
      </trkpt>
      <trkpt lat="48.0712" lon="3.24847">
        <ele>167.9</ele>
        <time>2024-04-21T09:15:33Z</time>
      </trkpt>
      <trkpt lat="48.07113" lon="3.24867">
        <ele>169.1</ele>
        <time>2024-04-21T09:15:41Z</time>
      </trkpt>
      <trkpt lat="48.07101" lon="3.2489">
        <ele>170.8</ele>
        <time>2024-04-21T09:15:50Z</time>
      </trkpt>
      <trkpt lat="48.07091" lon="3.24915">
        <ele>171.7</ele>
        <time>2024-04-21T09:15:59Z</time>
      </trkpt>
      <trkpt lat="48.07077" lon="3.24946">
        <ele>173.2</ele>
        <time>2024-04-21T09:16:10Z</time>
      </trkpt>
      <trkpt lat="48.07072" lon="3.24956">
        <ele>173.6</ele>
        <time>2024-04-21T09:16:33Z</time>
      </trkpt>
      <trkpt lat="48.07072" lon="3.24956">
        <ele>173.6</ele>
        <time>2024-04-21T09:16:48Z</time>
      </trkpt>
      <trkpt lat="48.0707" lon="3.24968">
        <ele>173.9</ele>
        <time>2024-04-21T09:17:26Z</time>
      </trkpt>
      <trkpt lat="48.07068" lon="3.24985">
        <ele>174.3</ele>
        <time>2024-04-21T09:17:33Z</time>
      </trkpt>
      <trkpt lat="48.07071" lon="3.24994">
        <ele>174.3</ele>
        <time>2024-04-21T09:17:37Z</time>
      </trkpt>
      <trkpt lat="48.07083" lon="3.25008">
        <ele>174</ele>
        <time>2024-04-21T09:17:45Z</time>
      </trkpt>
      <trkpt lat="48.07094" lon="3.25017">
        <ele>173.5</ele>
        <time>2024-04-21T09:17:49Z</time>
      </trkpt>
      <trkpt lat="48.07117" lon="3.25041">
        <ele>172.6</ele>
        <time>2024-04-21T09:17:56Z</time>
      </trkpt>
      <trkpt lat="48.07136" lon="3.25063">
        <ele>171.2</ele>
        <time>2024-04-21T09:18:03Z</time>
      </trkpt>
      <trkpt lat="48.07158" lon="3.25084">
        <ele>170.3</ele>
        <time>2024-04-21T09:18:11Z</time>
      </trkpt>
      <trkpt lat="48.07174" lon="3.25102">
        <ele>170</ele>
        <time>2024-04-21T09:18:17Z</time>
      </trkpt>
      <trkpt lat="48.07191" lon="3.25127">
        <ele>169.5</ele>
        <time>2024-04-21T09:18:25Z</time>
      </trkpt>
      <trkpt lat="48.07207" lon="3.25153">
        <ele>168.5</ele>
        <time>2024-04-21T09:18:33Z</time>
      </trkpt>
      <trkpt lat="48.07218" lon="3.25174">
        <ele>168</ele>
        <time>2024-04-21T09:18:40Z</time>
      </trkpt>
      <trkpt lat="48.07223" lon="3.25194">
        <ele>168</ele>
        <time>2024-04-21T09:18:46Z</time>
      </trkpt>
      <trkpt lat="48.07226" lon="3.25201">
        <ele>167.8</ele>
        <time>2024-04-21T09:18:48Z</time>
      </trkpt>
      <trkpt lat="48.07235" lon="3.25229">
        <ele>166.6</ele>
        <time>2024-04-21T09:18:55Z</time>
      </trkpt>
      <trkpt lat="48.07242" lon="3.25244">
        <ele>166</ele>
        <time>2024-04-21T09:18:59Z</time>
      </trkpt>
      <trkpt lat="48.07257" lon="3.25271">
        <ele>164.7</ele>
        <time>2024-04-21T09:19:06Z</time>
      </trkpt>
      <trkpt lat="48.07267" lon="3.25295">
        <ele>163.8</ele>
        <time>2024-04-21T09:19:12Z</time>
      </trkpt>
      <trkpt lat="48.07284" lon="3.25331">
        <ele>162.6</ele>
        <time>2024-04-21T09:19:20Z</time>
      </trkpt>
      <trkpt lat="48.07304" lon="3.2535">
        <ele>162.7</ele>
        <time>2024-04-21T09:19:26Z</time>
      </trkpt>
      <trkpt lat="48.07319" lon="3.2536">
        <ele>162.1</ele>
        <time>2024-04-21T09:19:32Z</time>
      </trkpt>
      <trkpt lat="48.07323" lon="3.25365">
        <ele>161.8</ele>
        <time>2024-04-21T09:19:39Z</time>
      </trkpt>
      <trkpt lat="48.07324" lon="3.25367">
        <ele>161.7</ele>
        <time>2024-04-21T09:19:53Z</time>
      </trkpt>
      <trkpt lat="48.07326" lon="3.25368">
        <ele>161.7</ele>
        <time>2024-04-21T09:19:57Z</time>
      </trkpt>
      <trkpt lat="48.07331" lon="3.25371">
        <ele>161.6</ele>
        <time>2024-04-21T09:20:00Z</time>
      </trkpt>
      <trkpt lat="48.07339" lon="3.25377">
        <ele>161.3</ele>
        <time>2024-04-21T09:20:04Z</time>
      </trkpt>
      <trkpt lat="48.07354" lon="3.25388">
        <ele>160.3</ele>
        <time>2024-04-21T09:20:12Z</time>
      </trkpt>
      <trkpt lat="48.0736" lon="3.25392">
        <ele>159.9</ele>
        <time>2024-04-21T09:20:31Z</time>
      </trkpt>
      <trkpt lat="48.07362" lon="3.25391">
        <ele>159.9</ele>
        <time>2024-04-21T09:20:37Z</time>
      </trkpt>
      <trkpt lat="48.07364" lon="3.25391">
        <ele>159.8</ele>
        <time>2024-04-21T09:22:17Z</time>
      </trkpt>
      <trkpt lat="48.07366" lon="3.25395">
        <ele>159.6</ele>
        <time>2024-04-21T09:22:19Z</time>
      </trkpt>
      <trkpt lat="48.07369" lon="3.25414">
        <ele>158.8</ele>
        <time>2024-04-21T09:22:25Z</time>
      </trkpt>
      <trkpt lat="48.0738" lon="3.25442">
        <ele>156.2</ele>
        <time>2024-04-21T09:22:32Z</time>
      </trkpt>
      <trkpt lat="48.07389" lon="3.25471">
        <ele>154.1</ele>
        <time>2024-04-21T09:22:38Z</time>
      </trkpt>
      <trkpt lat="48.07399" lon="3.25489">
        <ele>152.2</ele>
        <time>2024-04-21T09:22:44Z</time>
      </trkpt>
      <trkpt lat="48.07401" lon="3.25494">
        <ele>151.6</ele>
        <time>2024-04-21T09:22:50Z</time>
      </trkpt>
      <trkpt lat="48.07416" lon="3.25507">
        <ele>150.5</ele>
        <time>2024-04-21T09:22:58Z</time>
      </trkpt>
      <trkpt lat="48.07424" lon="3.25518">
        <ele>149.4</ele>
        <time>2024-04-21T09:23:02Z</time>
      </trkpt>
      <trkpt lat="48.07452" lon="3.25551">
        <ele>146.1</ele>
        <time>2024-04-21T09:23:10Z</time>
      </trkpt>
      <trkpt lat="48.07471" lon="3.25575">
        <ele>144.3</ele>
        <time>2024-04-21T09:23:16Z</time>
      </trkpt>
      <trkpt lat="48.0748" lon="3.25584">
        <ele>143.7</ele>
        <time>2024-04-21T09:23:18Z</time>
      </trkpt>
      <trkpt lat="48.07485" lon="3.25596">
        <ele>142.6</ele>
        <time>2024-04-21T09:23:20Z</time>
      </trkpt>
      <trkpt lat="48.07496" lon="3.25628">
        <ele>139.8</ele>
        <time>2024-04-21T09:23:25Z</time>
      </trkpt>
      <trkpt lat="48.07498" lon="3.25633">
        <ele>139.4</ele>
        <time>2024-04-21T09:23:26Z</time>
      </trkpt>
      <trkpt lat="48.07499" lon="3.25638">
        <ele>139</ele>
        <time>2024-04-21T09:23:27Z</time>
      </trkpt>
      <trkpt lat="48.07514" lon="3.25668">
        <ele>136.4</ele>
        <time>2024-04-21T09:23:32Z</time>
      </trkpt>
      <trkpt lat="48.0752" lon="3.25676">
        <ele>135.7</ele>
        <time>2024-04-21T09:23:34Z</time>
      </trkpt>
      <trkpt lat="48.07525" lon="3.25691">
        <ele>134.3</ele>
        <time>2024-04-21T09:23:38Z</time>
      </trkpt>
      <trkpt lat="48.07528" lon="3.25693">
        <ele>134.2</ele>
        <time>2024-04-21T09:23:39Z</time>
      </trkpt>
      <trkpt lat="48.07529" lon="3.25693">
        <ele>134.2</ele>
        <time>2024-04-21T09:23:40Z</time>
      </trkpt>
      <trkpt lat="48.0754" lon="3.25707">
        <ele>132.8</ele>
        <time>2024-04-21T09:23:45Z</time>
      </trkpt>
      <trkpt lat="48.07557" lon="3.2574">
        <ele>130.1</ele>
        <time>2024-04-21T09:23:51Z</time>
      </trkpt>
      <trkpt lat="48.07572" lon="3.2576">
        <ele>128.3</ele>
        <time>2024-04-21T09:23:54Z</time>
      </trkpt>
      <trkpt lat="48.07577" lon="3.25766">
        <ele>127.8</ele>
        <time>2024-04-21T09:23:55Z</time>
      </trkpt>
      <trkpt lat="48.07581" lon="3.25771">
        <ele>127.5</ele>
        <time>2024-04-21T09:23:56Z</time>
      </trkpt>
      <trkpt lat="48.07596" lon="3.25793">
        <ele>125.4</ele>
        <time>2024-04-21T09:24:00Z</time>
      </trkpt>
      <trkpt lat="48.07597" lon="3.258">
        <ele>124.9</ele>
        <time>2024-04-21T09:24:01Z</time>
      </trkpt>
      <trkpt lat="48.07595" lon="3.25808">
        <ele>124.3</ele>
        <time>2024-04-21T09:24:02Z</time>
      </trkpt>
      <trkpt lat="48.07592" lon="3.25815">
        <ele>123.7</ele>
        <time>2024-04-21T09:24:03Z</time>
      </trkpt>
      <trkpt lat="48.07589" lon="3.25824">
        <ele>122.8</ele>
        <time>2024-04-21T09:24:04Z</time>
      </trkpt>
      <trkpt lat="48.07585" lon="3.25832">
        <ele>122.1</ele>
        <time>2024-04-21T09:24:05Z</time>
      </trkpt>
      <trkpt lat="48.07579" lon="3.25847">
        <ele>121.2</ele>
        <time>2024-04-21T09:24:07Z</time>
      </trkpt>
      <trkpt lat="48.07577" lon="3.25855">
        <ele>120.8</ele>
        <time>2024-04-21T09:24:08Z</time>
      </trkpt>
      <trkpt lat="48.07576" lon="3.25862">
        <ele>120.5</ele>
        <time>2024-04-21T09:24:09Z</time>
      </trkpt>
      <trkpt lat="48.07577" lon="3.25868">
        <ele>120.5</ele>
        <time>2024-04-21T09:24:10Z</time>
      </trkpt>
      <trkpt lat="48.0758" lon="3.25874">
        <ele>120.2</ele>
        <time>2024-04-21T09:24:11Z</time>
      </trkpt>
      <trkpt lat="48.07585" lon="3.2588">
        <ele>119.9</ele>
        <time>2024-04-21T09:24:12Z</time>
      </trkpt>
      <trkpt lat="48.07612" lon="3.25907">
        <ele>116.3</ele>
        <time>2024-04-21T09:24:16Z</time>
      </trkpt>
      <trkpt lat="48.07657" lon="3.25957">
        <ele>111.5</ele>
        <time>2024-04-21T09:24:22Z</time>
      </trkpt>
      <trkpt lat="48.07664" lon="3.25966">
        <ele>111.1</ele>
        <time>2024-04-21T09:24:23Z</time>
      </trkpt>
      <trkpt lat="48.0767" lon="3.25978">
        <ele>110.7</ele>
        <time>2024-04-21T09:24:24Z</time>
      </trkpt>
      <trkpt lat="48.07674" lon="3.25989">
        <ele>110.3</ele>
        <time>2024-04-21T09:24:25Z</time>
      </trkpt>
      <trkpt lat="48.07677" lon="3.26002">
        <ele>110</ele>
        <time>2024-04-21T09:24:26Z</time>
      </trkpt>
      <trkpt lat="48.07679" lon="3.26016">
        <ele>110</ele>
        <time>2024-04-21T09:24:27Z</time>
      </trkpt>
      <trkpt lat="48.0768" lon="3.26029">
        <ele>110</ele>
        <time>2024-04-21T09:24:28Z</time>
      </trkpt>
      <trkpt lat="48.0768" lon="3.26042">
        <ele>110.2</ele>
        <time>2024-04-21T09:24:29Z</time>
      </trkpt>
      <trkpt lat="48.07679" lon="3.26054">
        <ele>110.4</ele>
        <time>2024-04-21T09:24:30Z</time>
      </trkpt>
      <trkpt lat="48.07675" lon="3.2616">
        <ele>107.5</ele>
        <time>2024-04-21T09:24:39Z</time>
      </trkpt>
      <trkpt lat="48.07676" lon="3.26265">
        <ele>105.8</ele>
        <time>2024-04-21T09:24:48Z</time>
      </trkpt>
    </trkseg>
  </trk>
</gpx>